Observation data for Lesley on 03/10/2018      Previous  Date  Next       Current Mesonet Observations  Soil Data  Daily Summary Page  Observations in Plain Language
KLE1 100600Z 33001KT 11/M06 A2979 RMK A01 T01131056  RH  030%=      5-min Rain = 0
KLE1 100601Z 33001KT 11/M06 A2979 RMK A01 T01141055  RH  030%=      5-min Rain = 0
KLE1 100602Z 32002KT 12/M06 A2979 RMK A01 T01151055  RH  030%=      5-min Rain = 0
KLE1 100603Z 32002KT 12/M06 A2979 RMK A01 T01161055  RH  030%=      5-min Rain = 0
KLE1 100604Z 33002KT 12/M06 A2979 RMK A01 T01161056  RH  030%=      5-min Rain = 0
KLE1 100605Z 34002KT 12/M06 A2979 RMK A01 T01171056  RH  029%=      5-min Rain = 0
KLE1 100606Z 35002KT 12/M06 A2979 RMK A01 T01161057  RH  029%=      5-min Rain = 0
KLE1 100607Z 34002KT 12/M06 A2979 RMK A01 T01161057  RH  029%=      5-min Rain = 0
KLE1 100608Z 36002KT 12/M06 A2979 RMK A01 T01151057  RH  030%=      5-min Rain = 0
KLE1 100609Z 35002KT 11/M06 A2979 RMK A01 T01131058  RH  030%=      5-min Rain = 0
KLE1 100610Z 34002KT 11/M06 A2979 RMK A01 T01121058  RH  030%=      5-min Rain = 0
KLE1 100611Z 34002KT 11/M06 A2979 RMK A01 T01121058  RH  030%=      5-min Rain = 0
KLE1 100612Z 32002KT 11/M06 A2979 RMK A01 T01111058  RH  030%=      5-min Rain = 0
KLE1 100613Z 31003KT 11/M06 A2979 RMK A01 T01091059  RH  030%=      5-min Rain = 0
KLE1 100614Z 30003KT 11/M06 A2979 RMK A01 T01081059  RH  030%=      5-min Rain = 0
KLE1 100615Z 30003KT 11/M06 A2979 RMK A01 T01071060  RH  030%=      5-min Rain = 0
KLE1 100616Z 30004KT 11/M06 A2979 RMK A01 T01061060  RH  031%=      5-min Rain = 0
KLE1 100617Z 30005KT 11/M06 A2979 RMK A01 T01051059  RH  031%=      5-min Rain = 0
KLE1 100618Z 29005KT 10/M06 A298 RMK A01 T01021060  RH  032%=      5-min Rain = 0
KLE1 100619Z 29005KT 10/M06 A298 RMK A01 T00971059  RH  033%=      5-min Rain = 0
KLE1 100620Z 29005KT 09/M06 A298 RMK A01 T00911056  RH  035%=      5-min Rain = 0
KLE1 100621Z 29006KT 09/M06 A298 RMK A01 T00851056  RH  036%=      5-min Rain = 0
KLE1 100622Z 28007KT 08/M06 A298 RMK A01 T00801060  RH  036%=      5-min Rain = 0
KLE1 100623Z 28007KT 08/M06 A298 RMK A01 T00771063  RH  036%=      5-min Rain = 0
KLE1 100624Z 27007KT 07/M06 A298 RMK A01 T00731060  RH  038%=      5-min Rain = 0
KLE1 100625Z 27006KT 07/M05 A298 RMK A01 T00711054  RH  041%=      5-min Rain = 0
KLE1 100626Z 26008KT 07/M05 A298 RMK A01 T00691047  RH  044%=      5-min Rain = 0
KLE1 100627Z 26008KT 07/M05 A2981 RMK A01 T00661047  RH  044%=      5-min Rain = 0
KLE1 100628Z 26007KT 06/M05 A2981 RMK A01 T00641054  RH  043%=      5-min Rain = 0
KLE1 100629Z 26008KT 06/M06 A2981 RMK A01 T00641057  RH  041%=      5-min Rain = 0
KLE1 100630Z 26010KT 06/M06 A2982 RMK A01 T00631062  RH  040%=      5-min Rain = 0
KLE1 100631Z 26009KT 06/M07 A2982 RMK A01 T00621065  RH  040%=      5-min Rain = 0
KLE1 100632Z 26008KT 06/M07 A2982 RMK A01 T00601067  RH  040%=      5-min Rain = 0
KLE1 100633Z 25008KT 06/M07 A2982 RMK A01 T00581067  RH  040%=      5-min Rain = 0
KLE1 100634Z 26009KT 06/M07 A2982 RMK A01 T00571066  RH  041%=      5-min Rain = 0
KLE1 100635Z 27009KT 06/M07 A2982 RMK A01 T00561066  RH  041%=      5-min Rain = 0
KLE1 100636Z 27009KT 06/M07 A2981 RMK A01 T00551067  RH  041%=      5-min Rain = 0
KLE1 100637Z 28008KT 06/M07 A2981 RMK A01 T00551067  RH  041%=      5-min Rain = 0
KLE1 100638Z 28007KT 05/M07 A2981 RMK A01 T00541067  RH  041%=      5-min Rain = 0
KLE1 100639Z 28007KT 05/M07 A2981 RMK A01 T00531067  RH  042%=      5-min Rain = 0
KLE1 100640Z 28006KT 05/M07 A2981 RMK A01 T00521067  RH  042%=      5-min Rain = 0
KLE1 100641Z 28006KT 05/M07 A2981 RMK A01 T00511067  RH  042%=      5-min Rain = 0
KLE1 100642Z 28006KT 05/M07 A2981 RMK A01 T00511067  RH  042%=      5-min Rain = 0
KLE1 100643Z 28006KT 05/M07 A2981 RMK A01 T00511067  RH  042%=      5-min Rain = 0
KLE1 100644Z 29005KT 05/M07 A2981 RMK A01 T00511066  RH  043%=      5-min Rain = 0
KLE1 100645Z 29005KT 05/M07 A2981 RMK A01 T00511067  RH  042%=      5-min Rain = 0
KLE1 100646Z 29006KT 05/M07 A298 RMK A01 T00521067  RH  042%=      5-min Rain = 0
KLE1 100647Z 30006KT 05/M07 A298 RMK A01 T00541068  RH  041%=      5-min Rain = 0
KLE1 100648Z 30006KT 06/M07 A298 RMK A01 T00551068  RH  041%=      5-min Rain = 0
KLE1 100649Z 30006KT 06/M07 A298 RMK A01 T00571067  RH  040%=      5-min Rain = 0
KLE1 100650Z 30006KT 06/M07 A298 RMK A01 T00591066  RH  040%=      5-min Rain = 0
KLE1 100651Z 30006KT 06/M07 A298 RMK A01 T00611065  RH  040%=      5-min Rain = 0
KLE1 100652Z 30006KT 06/M06 A298 RMK A01 T00621064  RH  040%=      5-min Rain = 0
KLE1 100653Z 29007KT 06/M06 A298 RMK A01 T00621064  RH  040%=      5-min Rain = 0
KLE1 100654Z 29007KT 06/M06 A298 RMK A01 T00641063  RH  040%=      5-min Rain = 0
KLE1 100655Z 29007KT 07/M06 A298 RMK A01 T00651064  RH  039%=      5-min Rain = 0
KLE1 100656Z 29006KT 06/M06 A298 RMK A01 T00641064  RH  039%=      5-min Rain = 0
KLE1 100657Z 29006KT 06/M07 A298 RMK A01 T00641065  RH  039%=      5-min Rain = 0
KLE1 100658Z 29006KT 06/M07 A298 RMK A01 T00641065  RH  039%=      5-min Rain = 0
KLE1 100659Z 30006KT 06/M07 A298 RMK A01 T00641066  RH  039%=      5-min Rain = 0
KLE1 100700Z 31005KT 06/M07 A298 RMK A01 T00641066  RH  039%=      5-min Rain = 0
KLE1 100701Z 31006KT 06/M07 A298 RMK A01 T00641067  RH  039%=      5-min Rain = 0
KLE1 100702Z 31006KT 06/M07 A298 RMK A01 T00631067  RH  039%=      5-min Rain = 0
KLE1 100703Z 31006KT 06/M07 A298 RMK A01 T00641066  RH  039%=      5-min Rain = 0
KLE1 100704Z 31005KT 06/M07 A298 RMK A01 T00641066  RH  039%=      5-min Rain = 0
KLE1 100705Z 31005KT 07/M07 A298 RMK A01 T00651066  RH  039%=      5-min Rain = 0
KLE1 100706Z 31005KT 07/M07 A298 RMK A01 T00651066  RH  039%=      5-min Rain = 0
KLE1 100707Z 31005KT 07/M07 A298 RMK A01 T00651066  RH  039%=      5-min Rain = 0
KLE1 100708Z 31005KT 07/M07 A298 RMK A01 T00651066  RH  039%=      5-min Rain = 0
KLE1 100709Z 31006KT 07/M07 A298 RMK A01 T00651066  RH  039%=      5-min Rain = 0
KLE1 100710Z 30005KT 07/M07 A298 RMK A01 T00651066  RH  039%=      5-min Rain = 0
KLE1 100711Z 30005KT 07/M07 A298 RMK A01 T00651065  RH  039%=      5-min Rain = 0
KLE1 100712Z 30006KT 06/M07 A298 RMK A01 T00641065  RH  039%=      5-min Rain = 0
KLE1 100713Z 30006KT 06/M07 A298 RMK A01 T00641065  RH  039%=      5-min Rain = 0
KLE1 100714Z 31006KT 07/M06 A298 RMK A01 T00661064  RH  039%=      5-min Rain = 0
KLE1 100715Z 31005KT 07/M06 A2979 RMK A01 T00671064  RH  039%=      5-min Rain = 0
KLE1 100716Z 31005KT 07/M06 A2979 RMK A01 T00671064  RH  039%=      5-min Rain = 0
KLE1 100717Z 31005KT 07/M06 A2979 RMK A01 T00691063  RH  038%=      5-min Rain = 0
KLE1 100718Z 32005KT 07/M06 A2979 RMK A01 T00701063  RH  038%=      5-min Rain = 0
KLE1 100719Z 32006KT 07/M06 A2979 RMK A01 T00711064  RH  038%=      5-min Rain = 0
KLE1 100720Z 32006KT 07/M06 A2979 RMK A01 T00721064  RH  037%=      5-min Rain = 0
KLE1 100721Z 32006KT 07/M06 A2979 RMK A01 T00721064  RH  037%=      5-min Rain = 0
KLE1 100722Z 31006KT 07/M07 A2979 RMK A01 T00721065  RH  037%=      5-min Rain = 0
KLE1 100723Z 31006KT 07/M07 A2979 RMK A01 T00721065  RH  037%=      5-min Rain = 0
KLE1 100724Z 31006KT 07/M06 A2979 RMK A01 T00721064  RH  037%=      5-min Rain = 0
KLE1 100725Z 32006KT 07/M07 A2979 RMK A01 T00711065  RH  037%=      5-min Rain = 0
KLE1 100726Z 32006KT 07/M07 A2979 RMK A01 T00711065  RH  037%=      5-min Rain = 0
KLE1 100727Z 32005KT 07/M07 A2979 RMK A01 T00711065  RH  037%=      5-min Rain = 0
KLE1 100728Z 32005KT 07/M07 A2979 RMK A01 T00711065  RH  037%=      5-min Rain = 0
KLE1 100729Z 31005KT 07/M07 A2979 RMK A01 T00711065  RH  037%=      5-min Rain = 0
KLE1 100730Z 32005KT 07/M07 A2979 RMK A01 T00711065  RH  037%=      5-min Rain = 0
KLE1 100731Z 32005KT 07/M06 A2979 RMK A01 T00711064  RH  038%=      5-min Rain = 0
KLE1 100732Z 31005KT 08/M06 A2979 RMK A01 T00751061  RH  038%=      5-min Rain = 0
KLE1 100733Z 32005KT 08/M06 A2979 RMK A01 T00781060  RH  037%=      5-min Rain = 0
KLE1 100734Z 32005KT 08/M06 A2979 RMK A01 T00791062  RH  036%=      5-min Rain = 0
KLE1 100735Z 32005KT 08/M06 A2978 RMK A01 T00791063  RH  036%=      5-min Rain = 0
KLE1 100736Z 32005KT 08/M06 A2978 RMK A01 T00791063  RH  036%=      5-min Rain = 0
KLE1 100737Z 32004KT 08/M06 A2979 RMK A01 T00781064  RH  036%=      5-min Rain = 0
KLE1 100738Z 31005KT 08/M07 A2979 RMK A01 T00761065  RH  036%=      5-min Rain = 0
KLE1 100739Z 31004KT 07/M07 A2979 RMK A01 T00741066  RH  036%=      5-min Rain = 0
KLE1 100740Z 31004KT 07/M07 A2979 RMK A01 T00721065  RH  037%=      5-min Rain = 0
KLE1 100741Z 31004KT 07/M07 A2979 RMK A01 T00711065  RH  037%=      5-min Rain = 0
KLE1 100742Z 31005KT 07/M07 A2979 RMK A01 T00701065  RH  037%=      5-min Rain = 0
KLE1 100743Z 31005KT 07/M07 A2979 RMK A01 T00691067  RH  037%=      5-min Rain = 0
KLE1 100744Z 30005KT 07/M07 A2979 RMK A01 T00661068  RH  038%=      5-min Rain = 0
KLE1 100745Z 30005KT 06/M07 A2979 RMK A01 T00631067  RH  039%=      5-min Rain = 0
KLE1 100746Z 30005KT 06/M07 A2979 RMK A01 T00601065  RH  040%=      5-min Rain = 0
KLE1 100747Z 30005KT 06/M07 A2979 RMK A01 T00571065  RH  041%=      5-min Rain = 0
KLE1 100748Z 29005KT 05/M06 A2979 RMK A01 T00521061  RH  044%=      5-min Rain = 0
KLE1 100749Z 29005KT 05/M06 A2979 RMK A01 T00471058  RH  046%=      5-min Rain = 0
KLE1 100750Z 29006KT 04/M06 A2979 RMK A01 T00441055  RH  049%=      5-min Rain = 0
KLE1 100751Z 29006KT 04/M05 A2979 RMK A01 T00421051  RH  051%=      5-min Rain = 0
KLE1 100752Z 28005KT 04/M05 A2979 RMK A01 T00411047  RH  053%=      5-min Rain = 0
KLE1 100753Z 28005KT 04/M05 A2979 RMK A01 T00411046  RH  053%=      5-min Rain = 0
KLE1 100754Z 28005KT 04/M05 A2979 RMK A01 T00411051  RH  051%=      5-min Rain = 0
KLE1 100755Z 28005KT 04/M06 A2979 RMK A01 T00421062  RH  047%=      5-min Rain = 0
KLE1 100756Z 28005KT 04/M07 A2979 RMK A01 T00421066  RH  045%=      5-min Rain = 0
KLE1 100757Z 28006KT 04/M07 A2979 RMK A01 T00431067  RH  045%=      5-min Rain = 0
KLE1 100758Z 28006KT 04/M07 A2979 RMK A01 T00431067  RH  045%=      5-min Rain = 0
KLE1 100759Z 28007KT 04/M07 A2979 RMK A01 T00421067  RH  045%=      5-min Rain = 0
KLE1 100800Z 28007KT 04/M07 A2979 RMK A01 T00411068  RH  045%=      5-min Rain = 0
KLE1 100801Z 28007KT 04/M07 A2979 RMK A01 T00391070  RH  045%=      5-min Rain = 0
KLE1 100802Z 28007KT 04/M07 A2979 RMK A01 T00381070  RH  045%=      5-min Rain = 0
KLE1 100803Z 28007KT 04/M07 A2979 RMK A01 T00381069  RH  046%=      5-min Rain = 0
KLE1 100804Z 28007KT 04/M07 A2979 RMK A01 T00381068  RH  046%=      5-min Rain = 0
KLE1 100805Z 28007KT 04/M07 A2978 RMK A01 T00381068  RH  046%=      5-min Rain = 0
KLE1 100806Z 28006KT 04/M07 A2978 RMK A01 T00381068  RH  046%=      5-min Rain = 0
KLE1 100807Z 28006KT 04/M07 A2978 RMK A01 T00381069  RH  046%=      5-min Rain = 0
KLE1 100808Z 28006KT 04/M07 A2978 RMK A01 T00381069  RH  045%=      5-min Rain = 0
KLE1 100809Z 28006KT 04/M07 A2978 RMK A01 T00381069  RH  045%=      5-min Rain = 0
KLE1 100810Z 28006KT 04/M07 A2978 RMK A01 T00371069  RH  046%=      5-min Rain = 0
KLE1 100811Z 28006KT 04/M07 A2978 RMK A01 T00361069  RH  046%=      5-min Rain = 0
KLE1 100812Z 28006KT 04/M07 A2978 RMK A01 T00361068  RH  046%=      5-min Rain = 0
KLE1 100813Z 27006KT 04/M07 A2978 RMK A01 T00351068  RH  047%=      5-min Rain = 0
KLE1 100814Z 27006KT 04/M07 A2978 RMK A01 T00351069  RH  047%=      5-min Rain = 0
KLE1 100815Z 27007KT 03/M07 A2978 RMK A01 T00341068  RH  047%=      5-min Rain = 0
KLE1 100816Z 27007KT 03/M07 A2978 RMK A01 T00331068  RH  048%=      5-min Rain = 0
KLE1 100817Z 27007KT 03/M07 A2978 RMK A01 T00331067  RH  048%=      5-min Rain = 0
KLE1 100818Z 28007KT 03/M07 A2978 RMK A01 T00331067  RH  048%=      5-min Rain = 0
KLE1 100819Z 28007KT 03/M07 A2978 RMK A01 T00331067  RH  048%=      5-min Rain = 0
KLE1 100820Z 28007KT 03/M07 A2978 RMK A01 T00331067  RH  048%=      5-min Rain = 0
KLE1 100821Z 28007KT 03/M07 A2978 RMK A01 T00331068  RH  048%=      5-min Rain = 0
KLE1 100822Z 28007KT 03/M07 A2978 RMK A01 T00331067  RH  048%=      5-min Rain = 0
KLE1 100823Z 28007KT 03/M07 A2978 RMK A01 T00341067  RH  048%=      5-min Rain = 0
KLE1 100824Z 28007KT 03/M07 A2978 RMK A01 T00341067  RH  048%=      5-min Rain = 0
KLE1 100825Z 28007KT 04/M07 A2978 RMK A01 T00351067  RH  048%=      5-min Rain = 0
KLE1 100826Z 28007KT 04/M07 A2978 RMK A01 T00351067  RH  047%=      5-min Rain = 0
KLE1 100827Z 28007KT 04/M07 A2978 RMK A01 T00361066  RH  047%=      5-min Rain = 0
KLE1 100828Z 28007KT 04/M07 A2978 RMK A01 T00361066  RH  047%=      5-min Rain = 0
KLE1 100829Z 28007KT 04/M07 A2977 RMK A01 T00361066  RH  047%=      5-min Rain = 0
KLE1 100830Z 28007KT 04/M07 A2977 RMK A01 T00371066  RH  047%=      5-min Rain = 0
KLE1 100831Z 28006KT 04/M07 A2977 RMK A01 T00371066  RH  047%=      5-min Rain = 0
KLE1 100832Z 28006KT 04/M07 A2977 RMK A01 T00381066  RH  046%=      5-min Rain = 0
KLE1 100833Z 27006KT 04/M07 A2977 RMK A01 T00381066  RH  046%=      5-min Rain = 0
KLE1 100834Z 27005KT 04/M07 A2977 RMK A01 T00381066  RH  046%=      5-min Rain = 0
KLE1 100835Z 27006KT 04/M07 A2977 RMK A01 T00381066  RH  046%=      5-min Rain = 0
KLE1 100836Z 28006KT 04/M07 A2977 RMK A01 T00381067  RH  046%=      5-min Rain = 0
KLE1 100837Z 28006KT 04/M07 A2977 RMK A01 T00371067  RH  047%=      5-min Rain = 0
KLE1 100838Z 28006KT 04/M07 A2977 RMK A01 T00371067  RH  047%=      5-min Rain = 0
KLE1 100839Z 28006KT 04/M07 A2977 RMK A01 T00361067  RH  047%=      5-min Rain = 0
KLE1 100840Z 28006KT 04/M07 A2977 RMK A01 T00351068  RH  047%=      5-min Rain = 0
KLE1 100841Z 28006KT 04/M07 A2977 RMK A01 T00351067  RH  047%=      5-min Rain = 0
KLE1 100842Z 28006KT 03/M07 A2977 RMK A01 T00341067  RH  047%=      5-min Rain = 0
KLE1 100843Z 28006KT 03/M07 A2977 RMK A01 T00341067  RH  047%=      5-min Rain = 0
KLE1 100844Z 28006KT 03/M07 A2977 RMK A01 T00341067  RH  048%=      5-min Rain = 0
KLE1 100845Z 29007KT 03/M07 A2977 RMK A01 T00341067  RH  048%=      5-min Rain = 0
KLE1 100846Z 29006KT 03/M07 A2977 RMK A01 T00341067  RH  048%=      5-min Rain = 0
KLE1 100847Z 29006KT 04/M07 A2977 RMK A01 T00351067  RH  047%=      5-min Rain = 0
KLE1 100848Z 29006KT 04/M07 A2977 RMK A01 T00351067  RH  047%=      5-min Rain = 0
KLE1 100849Z 28007KT 04/M07 A2977 RMK A01 T00351067  RH  047%=      5-min Rain = 0
KLE1 100850Z 29007KT 03/M07 A2976 RMK A01 T00341067  RH  047%=      5-min Rain = 0
KLE1 100851Z 29008KT 04/M07 A2976 RMK A01 T00351067  RH  047%=      5-min Rain = 0
KLE1 100852Z 29007KT 04/M07 A2976 RMK A01 T00351068  RH  047%=      5-min Rain = 0
KLE1 100853Z 28007KT 03/M07 A2976 RMK A01 T00341068  RH  047%=      5-min Rain = 0
KLE1 100854Z 28006KT 03/M07 A2976 RMK A01 T00341068  RH  047%=      5-min Rain = 0
KLE1 100855Z 28007KT 03/M07 A2976 RMK A01 T00331068  RH  047%=      5-min Rain = 0
KLE1 100856Z 28007KT 03/M07 A2976 RMK A01 T00331068  RH  047%=      5-min Rain = 0
KLE1 100857Z 28007KT 03/M07 A2976 RMK A01 T00341068  RH  047%=      5-min Rain = 0
KLE1 100858Z 28007KT 03/M07 A2976 RMK A01 T00341067  RH  047%=      5-min Rain = 0
KLE1 100859Z 28007KT 03/M07 A2977 RMK A01 T00341067  RH  048%=      5-min Rain = 0
KLE1 100900Z 28007KT 03/M07 A2977 RMK A01 T00331067  RH  048%=      5-min Rain = 0
KLE1 100901Z 27006KT 03/M07 A2977 RMK A01 T00321067  RH  048%=      5-min Rain = 0
KLE1 100902Z 27007KT 03/M07 A2977 RMK A01 T00311067  RH  049%=      5-min Rain = 0
KLE1 100903Z 27007KT 03/M07 A2977 RMK A01 T00311066  RH  049%=      5-min Rain = 0
KLE1 100904Z 27008KT 03/M07 A2977 RMK A01 T00301066  RH  049%=      5-min Rain = 0
KLE1 100905Z 27008KT 03/M07 A2977 RMK A01 T00301065  RH  050%=      5-min Rain = 0
KLE1 100906Z 27008KT 03/M07 A2977 RMK A01 T00291065  RH  050%=      5-min Rain = 0
KLE1 100907Z 27008KT 03/M07 A2977 RMK A01 T00291065  RH  050%=      5-min Rain = 0
KLE1 100908Z 27008KT 03/M07 A2977 RMK A01 T00281065  RH  050%=      5-min Rain = 0
KLE1 100909Z 27008KT 03/M07 A2977 RMK A01 T00291065  RH  050%=      5-min Rain = 0
KLE1 100910Z 27007KT 03/M07 A2977 RMK A01 T00291066  RH  050%=      5-min Rain = 0
KLE1 100911Z 27007KT 03/M07 A2976 RMK A01 T00301066  RH  049%=      5-min Rain = 0
KLE1 100912Z 28007KT 03/M07 A2976 RMK A01 T00301066  RH  049%=      5-min Rain = 0
KLE1 100913Z 28007KT 03/M07 A2976 RMK A01 T00311067  RH  049%=      5-min Rain = 0
KLE1 100914Z 28007KT 03/M07 A2976 RMK A01 T00311067  RH  049%=      5-min Rain = 0
KLE1 100915Z 28007KT 03/M07 A2976 RMK A01 T00311067  RH  048%=      5-min Rain = 0
KLE1 100916Z 29007KT 03/M07 A2976 RMK A01 T00321067  RH  048%=      5-min Rain = 0
KLE1 100917Z 29007KT 03/M07 A2976 RMK A01 T00321068  RH  048%=      5-min Rain = 0
KLE1 100918Z 29007KT 03/M07 A2976 RMK A01 T00321068  RH  048%=      5-min Rain = 0
KLE1 100919Z 29006KT 03/M07 A2976 RMK A01 T00321068  RH  048%=      5-min Rain = 0
KLE1 100920Z 29006KT 03/M07 A2976 RMK A01 T00321067  RH  048%=      5-min Rain = 0
KLE1 100921Z 29006KT 03/M07 A2976 RMK A01 T00331067  RH  048%=      5-min Rain = 0
KLE1 100922Z 29006KT 03/M07 A2976 RMK A01 T00331067  RH  048%=      5-min Rain = 0
KLE1 100923Z 29006KT 03/M07 A2976 RMK A01 T00331067  RH  048%=      5-min Rain = 0
KLE1 100924Z 29006KT 03/M07 A2976 RMK A01 T00331067  RH  048%=      5-min Rain = 0
KLE1 100925Z 29006KT 03/M07 A2976 RMK A01 T00331066  RH  048%=      5-min Rain = 0
KLE1 100926Z 29006KT 03/M07 A2976 RMK A01 T00331065  RH  049%=      5-min Rain = 0
KLE1 100927Z 29006KT 03/M07 A2976 RMK A01 T00331065  RH  049%=      5-min Rain = 0
KLE1 100928Z 29006KT 03/M06 A2976 RMK A01 T00331064  RH  049%=      5-min Rain = 0
KLE1 100929Z 29007KT 03/M07 A2976 RMK A01 T00331065  RH  049%=      5-min Rain = 0
KLE1 100930Z 29007KT 03/M06 A2976 RMK A01 T00321064  RH  049%=      5-min Rain = 0
KLE1 100931Z 29006KT 03/M06 A2976 RMK A01 T00331062  RH  050%=      5-min Rain = 0
KLE1 100932Z 29006KT 03/M06 A2976 RMK A01 T00331061  RH  050%=      5-min Rain = 0
KLE1 100933Z 29007KT 03/M06 A2976 RMK A01 T00331061  RH  050%=      5-min Rain = 0
KLE1 100934Z 29006KT 03/M06 A2976 RMK A01 T00341062  RH  050%=      5-min Rain = 0
KLE1 100935Z 29006KT 03/M06 A2976 RMK A01 T00341062  RH  049%=      5-min Rain = 0
KLE1 100936Z 29006KT 03/M06 A2976 RMK A01 T00341063  RH  049%=      5-min Rain = 0
KLE1 100937Z 28006KT 04/M06 A2976 RMK A01 T00351064  RH  048%=      5-min Rain = 0
KLE1 100938Z 28006KT 03/M07 A2976 RMK A01 T00341065  RH  048%=      5-min Rain = 0
KLE1 100939Z 28006KT 03/M07 A2976 RMK A01 T00331066  RH  048%=      5-min Rain = 0
KLE1 100940Z 29006KT 03/M07 A2976 RMK A01 T00321068  RH  048%=      5-min Rain = 0
KLE1 100941Z 30005KT 03/M07 A2976 RMK A01 T00311068  RH  048%=      5-min Rain = 0
KLE1 100942Z 31005KT 03/M07 A2976 RMK A01 T00311069  RH  048%=      5-min Rain = 0
KLE1 100943Z 31005KT 03/M07 A2975 RMK A01 T00321068  RH  048%=      5-min Rain = 0
KLE1 100944Z 31005KT 03/M07 A2975 RMK A01 T00331068  RH  047%=      5-min Rain = 0
KLE1 100945Z 30004KT 04/M07 A2975 RMK A01 T00351068  RH  047%=      5-min Rain = 0
KLE1 100946Z 28005KT 04/M07 A2975 RMK A01 T00351068  RH  047%=      5-min Rain = 0
KLE1 100947Z 28005KT 04/M07 A2975 RMK A01 T00351069  RH  046%=      5-min Rain = 0
KLE1 100948Z 30005KT 03/M07 A2975 RMK A01 T00331071  RH  047%=      5-min Rain = 0
KLE1 100949Z 32005KT 03/M07 A2975 RMK A01 T00331070  RH  047%=      5-min Rain = 0
KLE1 100950Z 33005KT 03/M07 A2975 RMK A01 T00331068  RH  048%=      5-min Rain = 0
KLE1 100951Z 33005KT 04/M07 A2975 RMK A01 T00351065  RH  048%=      5-min Rain = 0
KLE1 100952Z 33005KT 04/M06 A2975 RMK A01 T00371063  RH  048%=      5-min Rain = 0
KLE1 100953Z 33004KT 04/M06 A2975 RMK A01 T00381061  RH  048%=      5-min Rain = 0
KLE1 100954Z 29004KT 04/M06 A2975 RMK A01 T00401061  RH  048%=      5-min Rain = 0
KLE1 100955Z 29004KT 04/M07 A2975 RMK A01 T00391066  RH  046%=      5-min Rain = 0
KLE1 100956Z 33004KT 04/M07 A2974 RMK A01 T00371068  RH  046%=      5-min Rain = 0
KLE1 100957Z 34004KT 04/M07 A2974 RMK A01 T00361068  RH  047%=      5-min Rain = 0
KLE1 100958Z 34004KT 04/M07 A2974 RMK A01 T00351065  RH  048%=      5-min Rain = 0
KLE1 100959Z 33004KT 04/M06 A2975 RMK A01 T00361061  RH  049%=      5-min Rain = 0
KLE1 101000Z 31003KT 04/M06 A2975 RMK A01 T00371062  RH  048%=      5-min Rain = 0
KLE1 101001Z 28003KT 04/M07 A2975 RMK A01 T00371066  RH  047%=      5-min Rain = 0
KLE1 101002Z 28003KT 03/M07 A2975 RMK A01 T00341069  RH  047%=      5-min Rain = 0
KLE1 101003Z 32003KT 03/M07 A2975 RMK A01 T00321069  RH  048%=      5-min Rain = 0
KLE1 101004Z 35004KT 03/M07 A2974 RMK A01 T00311068  RH  048%=      5-min Rain = 0
KLE1 101005Z 32004KT 03/M07 A2975 RMK A01 T00321065  RH  049%=      5-min Rain = 0
KLE1 101006Z 27005KT 03/M06 A2975 RMK A01 T00331064  RH  049%=      5-min Rain = 0
KLE1 101007Z 28005KT 03/M07 A2975 RMK A01 T00311067  RH  049%=      5-min Rain = 0
KLE1 101008Z 28005KT 03/M07 A2975 RMK A01 T00291067  RH  049%=      5-min Rain = 0
KLE1 101009Z 28005KT 03/M07 A2975 RMK A01 T00271066  RH  050%=      5-min Rain = 0
KLE1 101010Z 29005KT 03/M07 A2975 RMK A01 T00271067  RH  050%=      5-min Rain = 0
KLE1 101011Z 27006KT 03/M07 A2975 RMK A01 T00271067  RH  050%=      5-min Rain = 0
KLE1 101012Z 27008KT 03/M07 A2976 RMK A01 T00271068  RH  049%=      5-min Rain = 0
KLE1 101013Z 26008KT 03/M07 A2976 RMK A01 T00261068  RH  050%=      5-min Rain = 0
KLE1 101014Z 27007KT 03/M07 A2976 RMK A01 T00251068  RH  050%=      5-min Rain = 0
KLE1 101015Z 27007KT 03/M07 A2976 RMK A01 T00261068  RH  050%=      5-min Rain = 0
KLE1 101016Z 26008KT 03/M07 A2976 RMK A01 T00261069  RH  050%=      5-min Rain = 0
KLE1 101017Z 26008KT 03/M07 A2976 RMK A01 T00261069  RH  050%=      5-min Rain = 0
KLE1 101018Z 26008KT 03/M07 A2976 RMK A01 T00261067  RH  050%=      5-min Rain = 0
KLE1 101019Z 26008KT 03/M07 A2976 RMK A01 T00261066  RH  051%=      5-min Rain = 0
KLE1 101020Z 26007KT 03/M07 A2976 RMK A01 T00261065  RH  051%=      5-min Rain = 0
KLE1 101021Z 27007KT 03/M06 A2976 RMK A01 T00261064  RH  052%=      5-min Rain = 0
KLE1 101022Z 27006KT 03/M06 A2976 RMK A01 T00251064  RH  052%=      5-min Rain = 0
KLE1 101023Z 28006KT 03/M07 A2976 RMK A01 T00251065  RH  051%=      5-min Rain = 0
KLE1 101024Z 28006KT 03/M07 A2976 RMK A01 T00251066  RH  051%=      5-min Rain = 0
KLE1 101025Z 28006KT 03/M07 A2976 RMK A01 T00251066  RH  051%=      5-min Rain = 0
KLE1 101026Z 28006KT 03/M07 A2976 RMK A01 T00251067  RH  051%=      5-min Rain = 0
KLE1 101027Z 29006KT 03/M07 A2976 RMK A01 T00261067  RH  050%=      5-min Rain = 0
KLE1 101028Z 28006KT 03/M07 A2976 RMK A01 T00261067  RH  050%=      5-min Rain = 0
KLE1 101029Z 27006KT 03/M07 A2976 RMK A01 T00261067  RH  050%=      5-min Rain = 0
KLE1 101030Z 28006KT 03/M07 A2976 RMK A01 T00261067  RH  050%=      5-min Rain = 0
KLE1 101031Z 29006KT 03/M07 A2976 RMK A01 T00251068  RH  050%=      5-min Rain = 0
KLE1 101032Z 29006KT 03/M07 A2976 RMK A01 T00261068  RH  050%=      5-min Rain = 0
KLE1 101033Z 29006KT 03/M07 A2976 RMK A01 T00271068  RH  050%=      5-min Rain = 0
KLE1 101034Z 29006KT 03/M07 A2976 RMK A01 T00281068  RH  049%=      5-min Rain = 0
KLE1 101035Z 28006KT 03/M07 A2976 RMK A01 T00291068  RH  049%=      5-min Rain = 0
KLE1 101036Z 28006KT 03/M07 A2976 RMK A01 T00291068  RH  049%=      5-min Rain = 0
KLE1 101037Z 28005KT 03/M07 A2976 RMK A01 T00281068  RH  049%=      5-min Rain = 0
KLE1 101038Z 28006KT 03/M07 A2977 RMK A01 T00281068  RH  049%=      5-min Rain = 0
KLE1 101039Z 28006KT 03/M07 A2977 RMK A01 T00271068  RH  049%=      5-min Rain = 0
KLE1 101040Z 28006KT 03/M07 A2977 RMK A01 T00281068  RH  049%=      5-min Rain = 0
KLE1 101041Z 27006KT 03/M07 A2977 RMK A01 T00281068  RH  049%=      5-min Rain = 0
KLE1 101042Z 27006KT 03/M07 A2977 RMK A01 T00281068  RH  049%=      5-min Rain = 0
KLE1 101043Z 28007KT 03/M07 A2977 RMK A01 T00281067  RH  050%=      5-min Rain = 0
KLE1 101044Z 28007KT 03/M07 A2977 RMK A01 T00281067  RH  049%=      5-min Rain = 0
KLE1 101045Z 27006KT 03/M07 A2977 RMK A01 T00281068  RH  049%=      5-min Rain = 0
KLE1 101046Z 27006KT 03/M07 A2977 RMK A01 T00281068  RH  049%=      5-min Rain = 0
KLE1 101047Z 27007KT 03/M07 A2977 RMK A01 T00281067  RH  050%=      5-min Rain = 0
KLE1 101048Z 28007KT 03/M07 A2977 RMK A01 T00271067  RH  050%=      5-min Rain = 0
KLE1 101049Z 28007KT 03/M07 A2977 RMK A01 T00271067  RH  050%=      5-min Rain = 0
KLE1 101050Z 28007KT 03/M07 A2977 RMK A01 T00271066  RH  050%=      5-min Rain = 0
KLE1 101051Z 27006KT 03/M07 A2977 RMK A01 T00271066  RH  050%=      5-min Rain = 0
KLE1 101052Z 28006KT 03/M07 A2977 RMK A01 T00271065  RH  050%=      5-min Rain = 0
KLE1 101053Z 28006KT 03/M07 A2977 RMK A01 T00271066  RH  051%=      5-min Rain = 0
KLE1 101054Z 28006KT 03/M07 A2977 RMK A01 T00261066  RH  051%=      5-min Rain = 0
KLE1 101055Z 28007KT 03/M07 A2977 RMK A01 T00261066  RH  051%=      5-min Rain = 0
KLE1 101056Z 28007KT 03/M07 A2977 RMK A01 T00261067  RH  050%=      5-min Rain = 0
KLE1 101057Z 28007KT 03/M07 A2977 RMK A01 T00261067  RH  050%=      5-min Rain = 0
KLE1 101058Z 28007KT 03/M07 A2977 RMK A01 T00271067  RH  050%=      5-min Rain = 0
KLE1 101059Z 29007KT 03/M07 A2977 RMK A01 T00271067  RH  050%=      5-min Rain = 0
KLE1 101100Z 29007KT 03/M07 A2977 RMK A01 T00271067  RH  050%=      5-min Rain = 0
KLE1 101101Z 29007KT 03/M07 A2977 RMK A01 T00271067  RH  050%=      5-min Rain = 0
KLE1 101102Z 28006KT 03/M07 A2977 RMK A01 T00271067  RH  050%=      5-min Rain = 0
KLE1 101103Z 29006KT 03/M07 A2977 RMK A01 T00271067  RH  050%=      5-min Rain = 0
KLE1 101104Z 29006KT 03/M07 A2977 RMK A01 T00271067  RH  050%=      5-min Rain = 0
KLE1 101105Z 29006KT 03/M07 A2977 RMK A01 T00281066  RH  050%=      5-min Rain = 0
KLE1 101106Z 29007KT 03/M07 A2977 RMK A01 T00271066  RH  050%=      5-min Rain = 0
KLE1 101107Z 29007KT 03/M07 A2977 RMK A01 T00271066  RH  050%=      5-min Rain = 0
KLE1 101108Z 28007KT 03/M07 A2977 RMK A01 T00281066  RH  050%=      5-min Rain = 0
KLE1 101109Z 29007KT 03/M07 A2977 RMK A01 T00281066  RH  050%=      5-min Rain = 0
KLE1 101110Z 29007KT 03/M07 A2977 RMK A01 T00271066  RH  050%=      5-min Rain = 0
KLE1 101111Z 29008KT 03/M07 A2977 RMK A01 T00271066  RH  050%=      5-min Rain = 0
KLE1 101112Z 28008KT 03/M07 A2977 RMK A01 T00271066  RH  050%=      5-min Rain = 0
KLE1 101113Z 28008KT 03/M07 A2977 RMK A01 T00271066  RH  050%=      5-min Rain = 0
KLE1 101114Z 28008KT 03/M07 A2977 RMK A01 T00261066  RH  051%=      5-min Rain = 0
KLE1 101115Z 29008KT 03/M07 A2977 RMK A01 T00261066  RH  051%=      5-min Rain = 0
KLE1 101116Z 29008KT 03/M07 A2977 RMK A01 T00261066  RH  051%=      5-min Rain = 0
KLE1 101117Z 29007KT 03/M07 A2977 RMK A01 T00261067  RH  050%=      5-min Rain = 0
KLE1 101118Z 29007KT 03/M07 A2977 RMK A01 T00261067  RH  050%=      5-min Rain = 0
KLE1 101119Z 29006KT 03/M07 A2977 RMK A01 T00271067  RH  050%=      5-min Rain = 0
KLE1 101120Z 29006KT 03/M07 A2977 RMK A01 T00261067  RH  050%=      5-min Rain = 0
KLE1 101121Z 29006KT 03/M07 A2977 RMK A01 T00261068  RH  050%=      5-min Rain = 0
KLE1 101122Z 28007KT 03/M07 A2977 RMK A01 T00271067  RH  050%=      5-min Rain = 0
KLE1 101123Z 28008KT 03/M07 A2977 RMK A01 T00261068  RH  050%=      5-min Rain = 0
KLE1 101124Z 28008KT 03/M07 A2977 RMK A01 T00271068  RH  050%=      5-min Rain = 0
KLE1 101125Z 28008KT 03/M07 A2977 RMK A01 T00271068  RH  050%=      5-min Rain = 0
KLE1 101126Z 28008KT 03/M07 A2977 RMK A01 T00271067  RH  050%=      5-min Rain = 0
KLE1 101127Z 28008KT 03/M07 A2977 RMK A01 T00271068  RH  050%=      5-min Rain = 0
KLE1 101128Z 27007KT 03/M07 A2977 RMK A01 T00271067  RH  050%=      5-min Rain = 0
KLE1 101129Z 27006KT 03/M07 A2977 RMK A01 T00261068  RH  050%=      5-min Rain = 0
KLE1 101130Z 27006KT 03/M07 A2977 RMK A01 T00261067  RH  050%=      5-min Rain = 0
KLE1 101131Z 27007KT 03/M07 A2977 RMK A01 T00251067  RH  050%=      5-min Rain = 0
KLE1 101132Z 26008KT 03/M07 A2978 RMK A01 T00251067  RH  051%=      5-min Rain = 0
KLE1 101133Z 26008KT 03/M07 A2978 RMK A01 T00251067  RH  051%=      5-min Rain = 0
KLE1 101134Z 27007KT 03/M07 A2978 RMK A01 T00251066  RH  051%=      5-min Rain = 0
KLE1 101135Z 27007KT 03/M07 A2978 RMK A01 T00251066  RH  051%=      5-min Rain = 0
KLE1 101136Z 26008KT 03/M07 A2978 RMK A01 T00251066  RH  051%=      5-min Rain = 0
KLE1 101137Z 27008KT 03/M07 A2978 RMK A01 T00251066  RH  051%=      5-min Rain = 0
KLE1 101138Z 27007KT 03/M07 A2978 RMK A01 T00261066  RH  051%=      5-min Rain = 0
KLE1 101139Z 26008KT 03/M07 A2978 RMK A01 T00261065  RH  051%=      5-min Rain = 0
KLE1 101140Z 27007KT 03/M07 A2978 RMK A01 T00261065  RH  051%=      5-min Rain = 0
KLE1 101141Z 27007KT 03/M07 A2978 RMK A01 T00261065  RH  051%=      5-min Rain = 0
KLE1 101142Z 26008KT 03/M07 A2978 RMK A01 T00261065  RH  051%=      5-min Rain = 0
KLE1 101143Z 27008KT 03/M07 A2978 RMK A01 T00261065  RH  051%=      5-min Rain = 0
KLE1 101144Z 27008KT 03/M07 A2978 RMK A01 T00261065  RH  051%=      5-min Rain = 0
KLE1 101145Z 27008KT 03/M07 A2978 RMK A01 T00261065  RH  051%=      5-min Rain = 0
KLE1 101146Z 27008KT 03/M07 A2978 RMK A01 T00261066  RH  051%=      5-min Rain = 0
KLE1 101147Z 27007KT 03/M07 A2978 RMK A01 T00261066  RH  051%=      5-min Rain = 0
KLE1 101148Z 27007KT 03/M07 A2978 RMK A01 T00261067  RH  050%=      5-min Rain = 0
KLE1 101149Z 27007KT 03/M07 A2978 RMK A01 T00261067  RH  050%=      5-min Rain = 0
KLE1 101150Z 27007KT 03/M07 A2978 RMK A01 T00261067  RH  050%=      5-min Rain = 0
KLE1 101151Z 27006KT 03/M07 A2977 RMK A01 T00261068  RH  050%=      5-min Rain = 0
KLE1 101152Z 27006KT 03/M07 A2977 RMK A01 T00251068  RH  050%=      5-min Rain = 0
KLE1 101153Z 27006KT 03/M07 A2977 RMK A01 T00251068  RH  050%=      5-min Rain = 0
KLE1 101154Z 28006KT 03/M07 A2977 RMK A01 T00251068  RH  050%=      5-min Rain = 0
KLE1 101155Z 28006KT 02/M07 A2977 RMK A01 T00241069  RH  050%=      5-min Rain = 0
KLE1 101156Z 28006KT 02/M07 A2977 RMK A01 T00241069  RH  050%=      5-min Rain = 0
KLE1 101157Z 28006KT 03/M07 A2977 RMK A01 T00251068  RH  050%=      5-min Rain = 0
KLE1 101158Z 27006KT 03/M07 A2978 RMK A01 T00251068  RH  050%=      5-min Rain = 0
KLE1 101159Z 28006KT 03/M07 A2977 RMK A01 T00251068  RH  050%=      5-min Rain = 0
KLE1 101200Z 28006KT 03/M07 A2977 RMK A01 T00251068  RH  050%=      5-min Rain = 0
KLE1 101201Z 27007KT 03/M07 A2977 RMK A01 T00251069  RH  050%=      5-min Rain = 0
KLE1 101202Z 28007KT 03/M07 A2977 RMK A01 T00251069  RH  050%=      5-min Rain = 0
KLE1 101203Z 28007KT 03/M07 A2977 RMK A01 T00251069  RH  050%=      5-min Rain = 0
KLE1 101204Z 27007KT 03/M07 A2977 RMK A01 T00251069  RH  050%=      5-min Rain = 0
KLE1 101205Z 28007KT 03/M07 A2977 RMK A01 T00251068  RH  050%=      5-min Rain = 0
KLE1 101206Z 27007KT 03/M07 A2977 RMK A01 T00251069  RH  050%=      5-min Rain = 0
KLE1 101207Z 28008KT 03/M07 A2978 RMK A01 T00251069  RH  050%=      5-min Rain = 0
KLE1 101208Z 28008KT 03/M07 A2977 RMK A01 T00251068  RH  050%=      5-min Rain = 0
KLE1 101209Z 28008KT 03/M07 A2977 RMK A01 T00251068  RH  050%=      5-min Rain = 0
KLE1 101210Z 28008KT 03/M07 A2977 RMK A01 T00251068  RH  050%=      5-min Rain = 0
KLE1 101211Z 28008KT 03/M07 A2977 RMK A01 T00251068  RH  050%=      5-min Rain = 0
KLE1 101212Z 28007KT 03/M07 A2977 RMK A01 T00251068  RH  050%=      5-min Rain = 0
KLE1 101213Z 28007KT 03/M07 A2977 RMK A01 T00261068  RH  050%=      5-min Rain = 0
KLE1 101214Z 28007KT 03/M07 A2977 RMK A01 T00261068  RH  050%=      5-min Rain = 0
KLE1 101215Z 28007KT 03/M07 A2978 RMK A01 T00251068  RH  050%=      5-min Rain = 0
KLE1 101216Z 28007KT 03/M07 A2978 RMK A01 T00251068  RH  050%=      5-min Rain = 0
KLE1 101217Z 28008KT 03/M07 A2978 RMK A01 T00251068  RH  050%=      5-min Rain = 0
KLE1 101218Z 28008KT 03/M07 A2978 RMK A01 T00251068  RH  050%=      5-min Rain = 0
KLE1 101219Z 28008KT 03/M07 A2978 RMK A01 T00251068  RH  050%=      5-min Rain = 0
KLE1 101220Z 28008KT 03/M07 A2978 RMK A01 T00251068  RH  050%=      5-min Rain = 0
KLE1 101221Z 28008KT 03/M07 A2978 RMK A01 T00251068  RH  050%=      5-min Rain = 0
KLE1 101222Z 28008KT 03/M07 A2978 RMK A01 T00251069  RH  050%=      5-min Rain = 0
KLE1 101223Z 28008KT 03/M07 A2978 RMK A01 T00261069  RH  050%=      5-min Rain = 0
KLE1 101224Z 28008KT 03/M07 A2978 RMK A01 T00271069  RH  049%=      5-min Rain = 0
KLE1 101225Z 27008KT 03/M07 A2978 RMK A01 T00271069  RH  049%=      5-min Rain = 0
KLE1 101226Z 28009KT 03/M07 A2978 RMK A01 T00281069  RH  049%=      5-min Rain = 0
KLE1 101227Z 28008KT 03/M07 A2978 RMK A01 T00281069  RH  049%=      5-min Rain = 0
KLE1 101228Z 28008KT 03/M07 A2978 RMK A01 T00281069  RH  049%=      5-min Rain = 0
KLE1 101229Z 28008KT 03/M07 A2978 RMK A01 T00281069  RH  049%=      5-min Rain = 0
KLE1 101230Z 28008KT 03/M07 A2978 RMK A01 T00281069  RH  049%=      5-min Rain = 0
KLE1 101231Z 28008KT 03/M07 A2978 RMK A01 T00291069  RH  049%=      5-min Rain = 0
KLE1 101232Z 28008KT 03/M07 A2978 RMK A01 T00281069  RH  049%=      5-min Rain = 0
KLE1 101233Z 28008KT 03/M07 A2978 RMK A01 T00281069  RH  049%=      5-min Rain = 0
KLE1 101234Z 28009KT 03/M07 A2978 RMK A01 T00291069  RH  049%=      5-min Rain = 0
KLE1 101235Z 28008KT 03/M07 A2978 RMK A01 T00291069  RH  049%=      5-min Rain = 0
KLE1 101236Z 28008KT 03/M07 A2978 RMK A01 T00301069  RH  048%=      5-min Rain = 0
KLE1 101237Z 28008KT 03/M07 A2978 RMK A01 T00301069  RH  048%=      5-min Rain = 0
KLE1 101238Z 28008KT 03/M07 A2978 RMK A01 T00301069  RH  048%=      5-min Rain = 0
KLE1 101239Z 28007KT 03/M07 A2978 RMK A01 T00301069  RH  048%=      5-min Rain = 0
KLE1 101240Z 28008KT 03/M07 A2978 RMK A01 T00291069  RH  048%=      5-min Rain = 0
KLE1 101241Z 28008KT 03/M07 A2979 RMK A01 T00291069  RH  048%=      5-min Rain = 0
KLE1 101242Z 28009KT 03/M07 A2979 RMK A01 T00281070  RH  049%=      5-min Rain = 0
KLE1 101243Z 28008KT 03/M07 A2979 RMK A01 T00281069  RH  049%=      5-min Rain = 0
KLE1 101244Z 28007KT 03/M07 A2979 RMK A01 T00281069  RH  049%=      5-min Rain = 0
KLE1 101245Z 28007KT 03/M07 A2979 RMK A01 T00291069  RH  049%=      5-min Rain = 0
KLE1 101246Z 28008KT 03/M07 A2979 RMK A01 T00281069  RH  049%=      5-min Rain = 0
KLE1 101247Z 28007KT 03/M07 A2979 RMK A01 T00281068  RH  049%=      5-min Rain = 0
KLE1 101248Z 28007KT 03/M07 A2979 RMK A01 T00281068  RH  049%=      5-min Rain = 0
KLE1 101249Z 28006KT 03/M07 A2979 RMK A01 T00271068  RH  049%=      5-min Rain = 0
KLE1 101250Z 28007KT 03/M07 A2979 RMK A01 T00271068  RH  049%=      5-min Rain = 0
KLE1 101251Z 28010KT 03/M07 A2979 RMK A01 T00271068  RH  050%=      5-min Rain = 0
KLE1 101252Z 28008KT 03/M07 A2979 RMK A01 T00271068  RH  050%=      5-min Rain = 0
KLE1 101253Z 28008KT 03/M07 A2979 RMK A01 T00281067  RH  050%=      5-min Rain = 0
KLE1 101254Z 28010KT 03/M07 A2979 RMK A01 T00281067  RH  049%=      5-min Rain = 0
KLE1 101255Z 28009KT 03/M07 A2979 RMK A01 T00281067  RH  050%=      5-min Rain = 0
KLE1 101256Z 28009KT 03/M07 A2979 RMK A01 T00281067  RH  050%=      5-min Rain = 0
KLE1 101257Z 29013KT 03/M07 A2979 RMK A01 T00281067  RH  049%=      5-min Rain = 0
KLE1 101258Z 29012KT 03/M07 A2979 RMK A01 T00301067  RH  049%=      5-min Rain = 0
KLE1 101259Z 29011KT 03/M07 A2979 RMK A01 T00331066  RH  048%=      5-min Rain = 0
KLE1 101300Z 29011KT 03/M07 A2979 RMK A01 T00341066  RH  048%=      5-min Rain = 0
KLE1 101301Z 30011KT 03/M07 A2979 RMK A01 T00341065  RH  048%=      5-min Rain = 0
KLE1 101302Z 30009KT 04/M06 A2979 RMK A01 T00351064  RH  048%=      5-min Rain = 0
KLE1 101303Z 29010KT 04/M06 A2979 RMK A01 T00361064  RH  048%=      5-min Rain = 0
KLE1 101304Z 29010KT 04/M06 A2979 RMK A01 T00361064  RH  048%=      5-min Rain = 0
KLE1 101305Z 30009KT 04/M06 A2979 RMK A01 T00361064  RH  048%=      5-min Rain = 0
KLE1 101306Z 30009KT 04/M06 A2979 RMK A01 T00361064  RH  048%=      5-min Rain = 0
KLE1 101307Z 30008KT 04/M06 A2979 RMK A01 T00361064  RH  048%=      5-min Rain = 0
KLE1 101308Z 30008KT 04/M06 A2979 RMK A01 T00361064  RH  048%=      5-min Rain = 0
KLE1 101309Z 30009KT 04/M06 A2979 RMK A01 T00361064  RH  048%=      5-min Rain = 0
KLE1 101310Z 30010KT 04/M07 A2979 RMK A01 T00361065  RH  048%=      5-min Rain = 0
KLE1 101311Z 30010KT 04/M07 A2979 RMK A01 T00361066  RH  047%=      5-min Rain = 0
KLE1 101312Z 30010KT 04/M07 A2979 RMK A01 T00381065  RH  047%=      5-min Rain = 0
KLE1 101313Z 30009KT 04/M07 A2979 RMK A01 T00391065  RH  047%=      5-min Rain = 0
KLE1 101314Z 30008KT 04/M07 A2979 RMK A01 T00381066  RH  046%=      5-min Rain = 0
KLE1 101315Z 29008KT 04/M07 A2979 RMK A01 T00381066  RH  047%=      5-min Rain = 0
KLE1 101316Z 29007KT 04/M07 A2979 RMK A01 T00371066  RH  047%=      5-min Rain = 0
KLE1 101317Z 28007KT 04/M07 A2979 RMK A01 T00361067  RH  047%=      5-min Rain = 0
KLE1 101318Z 28007KT 04/M07 A2979 RMK A01 T00351066  RH  047%=      5-min Rain = 0
KLE1 101319Z 27007KT 04/M06 A2979 RMK A01 T00351064  RH  048%=      5-min Rain = 0
KLE1 101320Z 27008KT 04/M06 A2979 RMK A01 T00351064  RH  048%=      5-min Rain = 0
KLE1 101321Z 27010KT 03/M06 A2979 RMK A01 T00341064  RH  049%=      5-min Rain = 0
KLE1 101322Z 27010KT 03/M06 A2979 RMK A01 T00341064  RH  049%=      5-min Rain = 0
KLE1 101323Z 27010KT 03/M07 A2979 RMK A01 T00331065  RH  049%=      5-min Rain = 0
KLE1 101324Z 26011KT 03/M07 A2979 RMK A01 T00331066  RH  049%=      5-min Rain = 0
KLE1 101325Z 27010KT 03/M07 A2979 RMK A01 T00321066  RH  049%=      5-min Rain = 0
KLE1 101326Z 26010KT 03/M07 A2979 RMK A01 T00321066  RH  049%=      5-min Rain = 0
KLE1 101327Z 27011KT 03/M07 A2979 RMK A01 T00321065  RH  049%=      5-min Rain = 0
KLE1 101328Z 26011KT 03/M07 A2979 RMK A01 T00321065  RH  049%=      5-min Rain = 0
KLE1 101329Z 26011KT 03/M07 A2979 RMK A01 T00331065  RH  049%=      5-min Rain = 0
KLE1 101330Z 26011KT 03/M07 A2979 RMK A01 T00331065  RH  049%=      5-min Rain = 0
KLE1 101331Z 27011KT 03/M07 A2979 RMK A01 T00341065  RH  048%=      5-min Rain = 0
KLE1 101332Z 27010KT 03/M07 A2979 RMK A01 T00341065  RH  048%=      5-min Rain = 0
KLE1 101333Z 27010KT 04/M07 A2979 RMK A01 T00351065  RH  048%=      5-min Rain = 0
KLE1 101334Z 27010KT 04/M07 A2979 RMK A01 T00361065  RH  047%=      5-min Rain = 0
KLE1 101335Z 27010KT 04/M07 A2979 RMK A01 T00371065  RH  047%=      5-min Rain = 0
KLE1 101336Z 27010KT 04/M07 A2979 RMK A01 T00381065  RH  047%=      5-min Rain = 0
KLE1 101337Z 27010KT 04/M07 A2979 RMK A01 T00391065  RH  047%=      5-min Rain = 0
KLE1 101338Z 27010KT 04/M07 A2979 RMK A01 T00401065  RH  046%=      5-min Rain = 0
KLE1 101339Z 27010KT 04/M07 A2979 RMK A01 T00411065  RH  046%=      5-min Rain = 0
KLE1 101340Z 27010KT 04/M06 A2979 RMK A01 T00421064  RH  046%=      5-min Rain = 0
KLE1 101341Z 27010KT 04/M06 A298 RMK A01 T00431064  RH  045%=      5-min Rain = 0
KLE1 101342Z 27010KT 05/M06 A298 RMK A01 T00451064  RH  045%=      5-min Rain = 0
KLE1 101343Z 27009KT 05/M07 A298 RMK A01 T00461065  RH  044%=      5-min Rain = 0
KLE1 101344Z 28010KT 05/M07 A298 RMK A01 T00481065  RH  044%=      5-min Rain = 0
KLE1 101345Z 27010KT 05/M06 A298 RMK A01 T00511064  RH  043%=      5-min Rain = 0
KLE1 101346Z 27010KT 05/M07 A298 RMK A01 T00531065  RH  042%=      5-min Rain = 0
KLE1 101347Z 27010KT 06/M07 A298 RMK A01 T00551066  RH  042%=      5-min Rain = 0
KLE1 101348Z 27011KT 06/M07 A298 RMK A01 T00551067  RH  041%=      5-min Rain = 0
KLE1 101349Z 27010KT 06/M07 A298 RMK A01 T00561066  RH  041%=      5-min Rain = 0
KLE1 101350Z 27009KT 06/M07 A298 RMK A01 T00561067  RH  041%=      5-min Rain = 0
KLE1 101351Z 27010KT 06/M07 A298 RMK A01 T00561066  RH  041%=      5-min Rain = 0
KLE1 101352Z 27011KT 06/M07 A298 RMK A01 T00551066  RH  041%=      5-min Rain = 0
KLE1 101353Z 27009KT 06/M07 A298 RMK A01 T00551067  RH  041%=      5-min Rain = 0
KLE1 101354Z 27010KT 06/M07 A298 RMK A01 T00551066  RH  041%=      5-min Rain = 0
KLE1 101355Z 27009KT 06/M07 A298 RMK A01 T00551066  RH  041%=      5-min Rain = 0
KLE1 101356Z 28010KT 06/M07 A298 RMK A01 T00551066  RH  041%=      5-min Rain = 0
KLE1 101357Z 28009KT 06/M07 A298 RMK A01 T00561066  RH  041%=      5-min Rain = 0
KLE1 101358Z 28009KT 06/M07 A298 RMK A01 T00581067  RH  040%=      5-min Rain = 0
KLE1 101359Z 28009KT 06/M07 A298 RMK A01 T00591067  RH  040%=      5-min Rain = 0
KLE1 101400Z 28009KT 06/M07 A298 RMK A01 T00601067  RH  040%=      5-min Rain = 0
KLE1 101401Z 27009KT 06/M07 A298 RMK A01 T00601067  RH  039%=      5-min Rain = 0
KLE1 101402Z 28009KT 06/M07 A298 RMK A01 T00611067  RH  039%=      5-min Rain = 0
KLE1 101403Z 28009KT 06/M07 A298 RMK A01 T00611067  RH  039%=      5-min Rain = 0
KLE1 101404Z 27009KT 06/M07 A298 RMK A01 T00611067  RH  039%=      5-min Rain = 0
KLE1 101405Z 28009KT 06/M07 A298 RMK A01 T00611066  RH  039%=      5-min Rain = 0
KLE1 101406Z 27009KT 06/M07 A298 RMK A01 T00611067  RH  040%=      5-min Rain = 0
KLE1 101407Z 28009KT 06/M07 A298 RMK A01 T00611067  RH  040%=      5-min Rain = 0
KLE1 101408Z 28010KT 06/M07 A298 RMK A01 T00611067  RH  040%=      5-min Rain = 0
KLE1 101409Z 28010KT 06/M07 A298 RMK A01 T00611066  RH  040%=      5-min Rain = 0
KLE1 101410Z 28010KT 06/M07 A298 RMK A01 T00611066  RH  040%=      5-min Rain = 0
KLE1 101411Z 28010KT 06/M07 A298 RMK A01 T00611066  RH  040%=      5-min Rain = 0
KLE1 101412Z 28010KT 06/M07 A298 RMK A01 T00611067  RH  040%=      5-min Rain = 0
KLE1 101413Z 28010KT 06/M07 A298 RMK A01 T00611067  RH  039%=      5-min Rain = 0
KLE1 101414Z 28010KT 06/M07 A298 RMK A01 T00611067  RH  039%=      5-min Rain = 0
KLE1 101415Z 28009KT 06/M07 A298 RMK A01 T00621067  RH  039%=      5-min Rain = 0
KLE1 101416Z 28010KT 06/M07 A298 RMK A01 T00621067  RH  039%=      5-min Rain = 0
KLE1 101417Z 29009KT 06/M07 A298 RMK A01 T00621066  RH  039%=      5-min Rain = 0
KLE1 101418Z 29009KT 06/M07 A298 RMK A01 T00621066  RH  039%=      5-min Rain = 0
KLE1 101419Z 29009KT 06/M07 A298 RMK A01 T00621066  RH  039%=      5-min Rain = 0
KLE1 101420Z 29009KT 06/M07 A298 RMK A01 T00621066  RH  039%=      5-min Rain = 0
KLE1 101421Z 29009KT 06/M07 A298 RMK A01 T00621066  RH  039%=      5-min Rain = 0
KLE1 101422Z 29009KT 06/M07 A298 RMK A01 T00621066  RH  039%=      5-min Rain = 0
KLE1 101423Z 29008KT 06/M07 A298 RMK A01 T00631066  RH  039%=      5-min Rain = 0
KLE1 101424Z 29008KT 06/M07 A298 RMK A01 T00631066  RH  039%=      5-min Rain = 0
KLE1 101425Z 30008KT 06/M07 A298 RMK A01 T00641066  RH  039%=      5-min Rain = 0
KLE1 101426Z 30007KT 06/M07 A298 RMK A01 T00641066  RH  039%=      5-min Rain = 0
KLE1 101427Z 30007KT 07/M07 A298 RMK A01 T00651065  RH  039%=      5-min Rain = 0
KLE1 101428Z 30007KT 07/M07 A298 RMK A01 T00661065  RH  039%=      5-min Rain = 0
KLE1 101429Z 30006KT 07/M06 A298 RMK A01 T00661063  RH  039%=      5-min Rain = 0
KLE1 101430Z 30006KT 07/M06 A298 RMK A01 T00681060  RH  040%=      5-min Rain = 0
KLE1 101431Z 30006KT 07/M06 A298 RMK A01 T00691059  RH  040%=      5-min Rain = 0
KLE1 101432Z 30006KT 07/M06 A298 RMK A01 T00711058  RH  039%=      5-min Rain = 0
KLE1 101433Z 30005KT 07/M06 A298 RMK A01 T00721058  RH  039%=      5-min Rain = 0
KLE1 101434Z 30005KT 07/M06 A298 RMK A01 T00731057  RH  039%=      5-min Rain = 0
KLE1 101435Z 30005KT 07/M06 A298 RMK A01 T00741058  RH  039%=      5-min Rain = 0
KLE1 101436Z 30004KT 08/M06 A298 RMK A01 T00751056  RH  039%=      5-min Rain = 0
KLE1 101437Z 30005KT 08/M06 A298 RMK A01 T00781055  RH  039%=      5-min Rain = 0
KLE1 101438Z 30005KT 08/M06 A298 RMK A01 T00801056  RH  037%=      5-min Rain = 0
KLE1 101439Z 30005KT 08/M06 A298 RMK A01 T00811058  RH  037%=      5-min Rain = 0
KLE1 101440Z 30005KT 08/M06 A298 RMK A01 T00821059  RH  036%=      5-min Rain = 0
KLE1 101441Z 30004KT 08/M06 A298 RMK A01 T00841058  RH  036%=      5-min Rain = 0
KLE1 101442Z 30005KT 09/M06 A298 RMK A01 T00851058  RH  036%=      5-min Rain = 0
KLE1 101443Z 31005KT 09/M06 A298 RMK A01 T00861059  RH  035%=      5-min Rain = 0
KLE1 101444Z 30005KT 09/M06 A298 RMK A01 T00871059  RH  035%=      5-min Rain = 0
KLE1 101445Z 30005KT 09/M06 A298 RMK A01 T00881058  RH  035%=      5-min Rain = 0
KLE1 101446Z 30005KT 09/M06 A298 RMK A01 T00891057  RH  035%=      5-min Rain = 0
KLE1 101447Z 30005KT 09/M06 A298 RMK A01 T00911056  RH  035%=      5-min Rain = 0
KLE1 101448Z 30005KT 09/M06 A298 RMK A01 T00911056  RH  035%=      5-min Rain = 0
KLE1 101449Z 30004KT 09/M05 A298 RMK A01 T00931054  RH  035%=      5-min Rain = 0
KLE1 101450Z 30004KT 10/M05 A298 RMK A01 T00951053  RH  035%=      5-min Rain = 0
KLE1 101451Z 31005KT 10/M06 A298 RMK A01 T00971055  RH  034%=      5-min Rain = 0
KLE1 101452Z 31005KT 10/M06 A298 RMK A01 T00971057  RH  033%=      5-min Rain = 0
KLE1 101453Z 31004KT 10/M06 A298 RMK A01 T00971056  RH  033%=      5-min Rain = 0
KLE1 101454Z 31004KT 10/M06 A298 RMK A01 T00981057  RH  033%=      5-min Rain = 0
KLE1 101455Z 31004KT 10/M06 A298 RMK A01 T00991057  RH  033%=      5-min Rain = 0
KLE1 101456Z 31004KT 10/M06 A298 RMK A01 T01001057  RH  033%=      5-min Rain = 0
KLE1 101457Z 30003KT 10/M06 A298 RMK A01 T01011058  RH  032%=      5-min Rain = 0
KLE1 101458Z 30003KT 10/M06 A298 RMK A01 T01011058  RH  032%=      5-min Rain = 0
KLE1 101459Z 29002KT 10/M06 A298 RMK A01 T01011058  RH  032%=      5-min Rain = 0
KLE1 101500Z 29002KT 10/M06 A298 RMK A01 T01011057  RH  032%=      5-min Rain = 0
KLE1 101501Z 29002KT 10/M06 A298 RMK A01 T01011057  RH  033%=      5-min Rain = 0
KLE1 101502Z 28001KT 10/M06 A298 RMK A01 T01001056  RH  033%=      5-min Rain = 0
KLE1 101503Z 28001KT 10/M06 A298 RMK A01 T01001056  RH  033%=      5-min Rain = 0
KLE1 101504Z 27001KT 10/M06 A298 RMK A01 T01001056  RH  033%=      5-min Rain = 0
KLE1 101505Z 26001KT 10/M06 A298 RMK A01 T01001056  RH  033%=      5-min Rain = 0
KLE1 101506Z 27001KT 10/M06 A298 RMK A01 T01001055  RH  033%=      5-min Rain = 0
KLE1 101507Z 27001KT 10/M06 A298 RMK A01 T01001055  RH  033%=      5-min Rain = 0
KLE1 101508Z 27002KT 10/M05 A298 RMK A01 T01001054  RH  033%=      5-min Rain = 0
KLE1 101509Z 26002KT 10/M05 A298 RMK A01 T01001053  RH  034%=      5-min Rain = 0
KLE1 101510Z 26002KT 10/M05 A298 RMK A01 T01001052  RH  034%=      5-min Rain = 0
KLE1 101511Z 26003KT 10/M05 A298 RMK A01 T01001052  RH  034%=      5-min Rain = 0
KLE1 101512Z 26003KT 10/M05 A298 RMK A01 T01001052  RH  034%=      5-min Rain = 0
KLE1 101513Z 26003KT 10/M05 A298 RMK A01 T01001051  RH  034%=      5-min Rain = 0
KLE1 101514Z 26003KT 10/M05 A298 RMK A01 T01001051  RH  034%=      5-min Rain = 0
KLE1 101515Z 25003KT 10/M05 A298 RMK A01 T01011049  RH  034%=      5-min Rain = 0
KLE1 101516Z 26003KT 10/M05 A298 RMK A01 T01031049  RH  034%=      5-min Rain = 0
KLE1 101517Z 25004KT 10/M05 A298 RMK A01 T01041050  RH  033%=      5-min Rain = 0
KLE1 101518Z 26004KT 11/M05 A298 RMK A01 T01061051  RH  033%=      5-min Rain = 0
KLE1 101519Z 26003KT 11/M05 A298 RMK A01 T01071052  RH  032%=      5-min Rain = 0
KLE1 101520Z 26004KT 11/M05 A298 RMK A01 T01081052  RH  032%=      5-min Rain = 0
KLE1 101521Z 26004KT 11/M05 A298 RMK A01 T01101054  RH  031%=      5-min Rain = 0
KLE1 101522Z 27004KT 11/M06 A298 RMK A01 T01101055  RH  031%=      5-min Rain = 0
KLE1 101523Z 27004KT 11/M06 A298 RMK A01 T01111057  RH  030%=      5-min Rain = 0
KLE1 101524Z 27004KT 11/M06 A298 RMK A01 T01121059  RH  030%=      5-min Rain = 0
KLE1 101525Z 26005KT 11/M06 A2981 RMK A01 T01131059  RH  029%=      5-min Rain = 0
KLE1 101526Z 26004KT 12/M06 A2981 RMK A01 T01151058  RH  029%=      5-min Rain = 0
KLE1 101527Z 27004KT 12/M06 A2981 RMK A01 T01171057  RH  029%=      5-min Rain = 0
KLE1 101528Z 27005KT 12/M06 A2981 RMK A01 T01191059  RH  028%=      5-min Rain = 0
KLE1 101529Z 28004KT 12/M06 A298 RMK A01 T01181060  RH  028%=      5-min Rain = 0
KLE1 101530Z 28004KT 12/M06 A298 RMK A01 T01191059  RH  028%=      5-min Rain = 0
KLE1 101531Z 27004KT 12/M06 A298 RMK A01 T01201056  RH  029%=      5-min Rain = 0
KLE1 101532Z 28005KT 12/M05 A298 RMK A01 T01231054  RH  029%=      5-min Rain = 0
KLE1 101533Z 28004KT 13/M05 A298 RMK A01 T01261053  RH  028%=      5-min Rain = 0
KLE1 101534Z 29005KT 13/M05 A298 RMK A01 T01281052  RH  028%=      5-min Rain = 0
KLE1 101535Z 29004KT 13/M05 A298 RMK A01 T01291053  RH  028%=      5-min Rain = 0
KLE1 101536Z 29004KT 13/M05 A298 RMK A01 T01301052  RH  028%=      5-min Rain = 0
KLE1 101537Z 30004KT 13/M05 A298 RMK A01 T01331051  RH  028%=      5-min Rain = 0
KLE1 101538Z 31003KT 14/M05 A298 RMK A01 T01351052  RH  027%=      5-min Rain = 0
KLE1 101539Z 30005KT 14/M06 A298 RMK A01 T01361055  RH  026%=      5-min Rain = 0
KLE1 101540Z 31005KT 14/M06 A298 RMK A01 T01361057  RH  026%=      5-min Rain = 0
KLE1 101541Z 31004KT 14/M06 A298 RMK A01 T01361057  RH  026%=      5-min Rain = 0
KLE1 101542Z 31004KT 14/M06 A298 RMK A01 T01361056  RH  026%=      5-min Rain = 0
KLE1 101543Z 31004KT 14/M05 A298 RMK A01 T01391053  RH  026%=      5-min Rain = 0
KLE1 101544Z 32003KT 14/M05 A298 RMK A01 T01391053  RH  026%=      5-min Rain = 0
KLE1 101545Z 33004KT 14/M05 A298 RMK A01 T01401052  RH  026%=      5-min Rain = 0
KLE1 101546Z 33004KT 14/M05 A298 RMK A01 T01421051  RH  026%=      5-min Rain = 0
KLE1 101547Z 33003KT 15/M05 A2979 RMK A01 T01471050  RH  025%=      5-min Rain = 0
KLE1 101548Z 34006KT 15/M06 A2979 RMK A01 T01501055  RH  024%=      5-min Rain = 0
KLE1 101549Z 34005KT 15/M06 A298 RMK A01 T01521059  RH  023%=      5-min Rain = 0
KLE1 101550Z 34004KT 15/M06 A298 RMK A01 T01541058  RH  023%=      5-min Rain = 0
KLE1 101551Z 34004KT 16/M06 A298 RMK A01 T01551056  RH  023%=      5-min Rain = 0
KLE1 101552Z 35005KT 16/M06 A298 RMK A01 T01571059  RH  022%=      5-min Rain = 0
KLE1 101553Z 34004KT 16/M06 A2979 RMK A01 T01591056  RH  022%=      5-min Rain = 0
KLE1 101554Z 34005KT 16/M06 A2979 RMK A01 T01621057  RH  022%=      5-min Rain = 0
KLE1 101555Z 36005KT 16/M06 A2979 RMK A01 T01631057  RH  022%=      5-min Rain = 0
KLE1 101556Z 00003KT 17/M05 A2979 RMK A01 T01651054  RH  022%=      5-min Rain = 0
KLE1 101557Z 35004KT 17/M06 A2979 RMK A01 T01661055  RH  022%=      5-min Rain = 0
KLE1 101558Z 35004KT 17/M06 A2979 RMK A01 T01671056  RH  021%=      5-min Rain = 0
KLE1 101559Z 01003KT 17/M05 A2979 RMK A01 T01671053  RH  022%=      5-min Rain = 0
KLE1 101600Z 02004KT 17/M05 A2979 RMK A01 T01701049  RH  022%=      5-min Rain = 0
KLE1 101601Z 01003KT 17/M05 A2979 RMK A01 T01721051  RH  021%=      5-min Rain = 0
KLE1 101602Z 01003KT 17/M05 A2979 RMK A01 T01721052  RH  021%=      5-min Rain = 0
KLE1 101603Z 34003KT 17/M05 A2979 RMK A01 T01711052  RH  021%=      5-min Rain = 0
KLE1 101604Z 01003KT 17/M05 A2979 RMK A01 T01711049  RH  022%=      5-min Rain = 0
KLE1 101605Z 02003KT 17/M05 A2979 RMK A01 T01711050  RH  022%=      5-min Rain = 0
KLE1 101606Z 35003KT 17/M05 A2979 RMK A01 T01721049  RH  022%=      5-min Rain = 0
KLE1 101607Z 32002KT 17/M05 A2979 RMK A01 T01731050  RH  021%=      5-min Rain = 0
KLE1 101608Z 33002KT 18/M05 A2979 RMK A01 T01751050  RH  021%=      5-min Rain = 0
KLE1 101609Z 33005KT 18/M05 A298 RMK A01 T01761049  RH  021%=      5-min Rain = 0
KLE1 101610Z 32005KT 18/M05 A298 RMK A01 T01791051  RH  020%=      5-min Rain = 0
KLE1 101611Z 32005KT 18/M05 A298 RMK A01 T01791051  RH  020%=      5-min Rain = 0
KLE1 101612Z 31004KT 18/M05 A298 RMK A01 T01791050  RH  021%=      5-min Rain = 0
KLE1 101613Z 31002KT 18/M05 A298 RMK A01 T01791049  RH  021%=      5-min Rain = 0
KLE1 101614Z 29002KT 18/M05 A2979 RMK A01 T01811049  RH  021%=      5-min Rain = 0
KLE1 101615Z 30005KT 18/M05 A2979 RMK A01 T01841048  RH  020%=      5-min Rain = 0
KLE1 101616Z 27004KT 19/M05 A2979 RMK A01 T01861050  RH  020%=      5-min Rain = 0
KLE1 101617Z 28005KT 19/M05 A2979 RMK A01 T01861050  RH  020%=      5-min Rain = 0
KLE1 101618Z 29004KT 19/M05 A2979 RMK A01 T01851049  RH  020%=      5-min Rain = 0
KLE1 101619Z 30003KT 19/M05 A2979 RMK A01 T01851049  RH  020%=      5-min Rain = 0
KLE1 101620Z 27003KT 19/M05 A2979 RMK A01 T01881051  RH  019%=      5-min Rain = 0
KLE1 101621Z 27006KT 19/M05 A2979 RMK A01 T01891052  RH  019%=      5-min Rain = 0
KLE1 101622Z 26005KT 19/M06 A2979 RMK A01 T01891056  RH  018%=      5-min Rain = 0
KLE1 101623Z 25006KT 19/M05 A2979 RMK A01 T01911051  RH  019%=      5-min Rain = 0
KLE1 101624Z 26006KT 19/M05 A2979 RMK A01 T01931053  RH  018%=      5-min Rain = 0
KLE1 101625Z 27006KT 19/M05 A2979 RMK A01 T01941053  RH  018%=      5-min Rain = 0
KLE1 101626Z 26005KT 19/M05 A2979 RMK A01 T01941054  RH  018%=      5-min Rain = 0
KLE1 101627Z 28007KT 20/M05 A2979 RMK A01 T01951052  RH  018%=      5-min Rain = 0
KLE1 101628Z 31007KT 20/M05 A2979 RMK A01 T01961053  RH  018%=      5-min Rain = 0
KLE1 101629Z 30008KT 20/M06 A2979 RMK A01 T01971056  RH  018%=      5-min Rain = 0
KLE1 101630Z 30006KT 20/M06 A2979 RMK A01 T01961056  RH  018%=      5-min Rain = 0
KLE1 101631Z 28006KT 20/M05 A2979 RMK A01 T01981054  RH  018%=      5-min Rain = 0
KLE1 101632Z 28007KT 20/M06 A2979 RMK A01 T01971056  RH  018%=      5-min Rain = 0
KLE1 101633Z 27007KT 20/M06 A2979 RMK A01 T01951055  RH  018%=      5-min Rain = 0
KLE1 101634Z 26007KT 20/M06 A2979 RMK A01 T01951056  RH  018%=      5-min Rain = 0
KLE1 101635Z 27006KT 19/M06 A2979 RMK A01 T01941055  RH  018%=      5-min Rain = 0
KLE1 101636Z 27006KT 19/M06 A2979 RMK A01 T01941056  RH  018%=      5-min Rain = 0
KLE1 101637Z 28005KT 20/M05 A2979 RMK A01 T01951054  RH  018%=      5-min Rain = 0
KLE1 101638Z 29005KT 20/M05 A2979 RMK A01 T01951054  RH  018%=      5-min Rain = 0
KLE1 101639Z 28003KT 20/M06 A2979 RMK A01 T01971057  RH  017%=      5-min Rain = 0
KLE1 101640Z 30007KT 20/M06 A2979 RMK A01 T01971057  RH  017%=      5-min Rain = 0
KLE1 101641Z 30009KT 20/M06 A2979 RMK A01 T02001058  RH  017%=      5-min Rain = 0
KLE1 101642Z 28009KT 20/M06 A2979 RMK A01 T02001059  RH  017%=      5-min Rain = 0
KLE1 101643Z 28009KT 20/M06 A2979 RMK A01 T02011060  RH  017%=      5-min Rain = 0
KLE1 101644Z 29007KT 20/M06 A2979 RMK A01 T02021057  RH  017%=      5-min Rain = 0
KLE1 101645Z 28005KT 20/M06 A2979 RMK A01 T02031058  RH  017%=      5-min Rain = 0
KLE1 101646Z 28007KT 20/M06 A2979 RMK A01 T02031056  RH  017%=      5-min Rain = 0
KLE1 101647Z 28008KT 20/M06 A2979 RMK A01 T02041057  RH  017%=      5-min Rain = 0
KLE1 101648Z 29006KT 21/M06 A2979 RMK A01 T02051060  RH  016%=      5-min Rain = 0
KLE1 101649Z 28009KT 20/M06 A2979 RMK A01 T02041059  RH  016%=      5-min Rain = 0
KLE1 101650Z 29007KT 20/M06 A2979 RMK A01 T02041060  RH  016%=      5-min Rain = 0
KLE1 101651Z 29005KT 20/M06 A2979 RMK A01 T02031060  RH  016%=      5-min Rain = 0
KLE1 101652Z 29004KT 20/M06 A2979 RMK A01 T02031059  RH  016%=      5-min Rain = 0
KLE1 101653Z 28007KT 20/M06 A2979 RMK A01 T02041059  RH  017%=      5-min Rain = 0
KLE1 101654Z 28007KT 21/M06 A2979 RMK A01 T02051058  RH  016%=      5-min Rain = 0
KLE1 101655Z 29007G12KT 21/M06 A2978 RMK A01 T02061057  RH  017%=      5-min Rain = 0
KLE1 101656Z 30005KT 21/M06 A2979 RMK A01 T02061057  RH  016%=      5-min Rain = 0
KLE1 101657Z 29006KT 21/M06 A2978 RMK A01 T02061057  RH  016%=      5-min Rain = 0
KLE1 101658Z 27007KT 21/M06 A2978 RMK A01 T02081058  RH  016%=      5-min Rain = 0
KLE1 101659Z 29007KT 21/M06 A2978 RMK A01 T02091060  RH  016%=      5-min Rain = 0
KLE1 101700Z 29007KT 21/M06 A2978 RMK A01 T02091059  RH  016%=      5-min Rain = 0
KLE1 101701Z 28005KT 21/M06 A2978 RMK A01 T02091060  RH  016%=      5-min Rain = 0
KLE1 101702Z 29004KT 21/M06 A2978 RMK A01 T02091060  RH  016%=      5-min Rain = 0
KLE1 101703Z 31005KT 21/M06 A2978 RMK A01 T02091057  RH  016%=      5-min Rain = 0
KLE1 101704Z 31006KT 21/M06 A2978 RMK A01 T02111058  RH  016%=      5-min Rain = 0
KLE1 101705Z 27005KT 21/M06 A2978 RMK A01 T02131057  RH  016%=      5-min Rain = 0
KLE1 101706Z 26007KT 21/M06 A2978 RMK A01 T02141057  RH  016%=      5-min Rain = 0
KLE1 101707Z 26007KT 22/M06 A2978 RMK A01 T02151056  RH  016%=      5-min Rain = 0
KLE1 101708Z 27006KT 22/M06 A2978 RMK A01 T02151057  RH  016%=      5-min Rain = 0
KLE1 101709Z 27005KT 21/M06 A2978 RMK A01 T02121059  RH  016%=      5-min Rain = 0
KLE1 101710Z 28006KT 21/M06 A2978 RMK A01 T02111060  RH  016%=      5-min Rain = 0
KLE1 101711Z 29007KT 21/M06 A2978 RMK A01 T02111062  RH  015%=      5-min Rain = 0
KLE1 101712Z 30006KT 21/M06 A2978 RMK A01 T02111061  RH  016%=      5-min Rain = 0
KLE1 101713Z 31005KT 21/M06 A2978 RMK A01 T02121061  RH  015%=      5-min Rain = 0
KLE1 101714Z 31006KT 21/M06 A2978 RMK A01 T02131062  RH  015%=      5-min Rain = 0
KLE1 101715Z 28006KT 21/M06 A2978 RMK A01 T02131059  RH  016%=      5-min Rain = 0
KLE1 101716Z 27005KT 22/M06 A2978 RMK A01 T02151058  RH  016%=      5-min Rain = 0
KLE1 101717Z 29007KT 22/M06 A2978 RMK A01 T02151060  RH  015%=      5-min Rain = 0
KLE1 101718Z 29007KT 22/M06 A2978 RMK A01 T02161062  RH  015%=      5-min Rain = 0
KLE1 101719Z 31004KT 22/M06 A2978 RMK A01 T02161063  RH  015%=      5-min Rain = 0
KLE1 101720Z 31005KT 22/M06 A2978 RMK A01 T02171060  RH  015%=      5-min Rain = 0
KLE1 101721Z 29008KT 22/M06 A2978 RMK A01 T02181060  RH  015%=      5-min Rain = 0
KLE1 101722Z 28007KT 22/M06 A2978 RMK A01 T02191061  RH  015%=      5-min Rain = 0
KLE1 101723Z 28007KT 22/M06 A2978 RMK A01 T02211060  RH  015%=      5-min Rain = 0
KLE1 101724Z 28006KT 22/M06 A2978 RMK A01 T02211062  RH  014%=      5-min Rain = 0
KLE1 101725Z 30009KT 22/M06 A2978 RMK A01 T02191061  RH  015%=      5-min Rain = 0
KLE1 101726Z 32004KT 22/M06 A2978 RMK A01 T02191062  RH  015%=      5-min Rain = 0
KLE1 101727Z 35001KT 22/M06 A2978 RMK A01 T02171063  RH  015%=      5-min Rain = 0
KLE1 101728Z 30002KT 22/M06 A2978 RMK A01 T02181061  RH  015%=      5-min Rain = 0
KLE1 101729Z 27007KT 22/M06 A2978 RMK A01 T02211056  RH  015%=      5-min Rain = 0
KLE1 101730Z 25007KT 23/M06 A2978 RMK A01 T02251060  RH  014%=      5-min Rain = 0
KLE1 101731Z 27009KT 23/M06 A2978 RMK A01 T02261060  RH  014%=      5-min Rain = 0
KLE1 101732Z 26008KT 23/M06 A2978 RMK A01 T02261061  RH  014%=      5-min Rain = 0
KLE1 101733Z 27007KT 23/M06 A2978 RMK A01 T02251060  RH  014%=      5-min Rain = 0
KLE1 101734Z 26004KT 23/M06 A2978 RMK A01 T02251061  RH  014%=      5-min Rain = 0
KLE1 101735Z 26003KT 22/M06 A2978 RMK A01 T02241063  RH  014%=      5-min Rain = 0
KLE1 101736Z 29005KT 22/M06 A2978 RMK A01 T02231062  RH  014%=      5-min Rain = 0
KLE1 101737Z 27008KT 22/M06 A2978 RMK A01 T02241059  RH  015%=      5-min Rain = 0
KLE1 101738Z 28007KT 23/M06 A2978 RMK A01 T02281061  RH  014%=      5-min Rain = 0
KLE1 101739Z 31007KT 23/M06 A2978 RMK A01 T02281060  RH  014%=      5-min Rain = 0
KLE1 101740Z 27008KT 23/M06 A2978 RMK A01 T02291060  RH  014%=      5-min Rain = 0
KLE1 101741Z 26008KT 23/M06 A2978 RMK A01 T02291061  RH  014%=      5-min Rain = 0
KLE1 101742Z 25005KT 23/M06 A2978 RMK A01 T02281062  RH  014%=      5-min Rain = 0
KLE1 101743Z 26005KT 23/M06 A2978 RMK A01 T02281062  RH  014%=      5-min Rain = 0
KLE1 101744Z 29007KT 23/M06 A2978 RMK A01 T02281061  RH  014%=      5-min Rain = 0
KLE1 101745Z 27007KT 23/M06 A2978 RMK A01 T02321058  RH  014%=      5-min Rain = 0
KLE1 101746Z 26005KT 23/M06 A2978 RMK A01 T02321064  RH  013%=      5-min Rain = 0
KLE1 101747Z 28006KT 23/M06 A2978 RMK A01 T02291062  RH  014%=      5-min Rain = 0
KLE1 101748Z 26005KT 23/M06 A2977 RMK A01 T02301063  RH  014%=      5-min Rain = 0
KLE1 101749Z 29005KT 23/M06 A2977 RMK A01 T02301062  RH  014%=      5-min Rain = 0
KLE1 101750Z 29003KT 23/M07 A2977 RMK A01 T02301065  RH  013%=      5-min Rain = 0
KLE1 101751Z 29005KT 23/M06 A2977 RMK A01 T02301061  RH  014%=      5-min Rain = 0
KLE1 101752Z 29004KT 23/M06 A2977 RMK A01 T02311061  RH  014%=      5-min Rain = 0
KLE1 101753Z 28003KT 24/M06 A2977 RMK A01 T02351057  RH  014%=      5-min Rain = 0
KLE1 101754Z 27006KT 24/M06 A2977 RMK A01 T02381059  RH  013%=      5-min Rain = 0
KLE1 101755Z 25006KT 24/M06 A2977 RMK A01 T02381062  RH  013%=      5-min Rain = 0
KLE1 101756Z 28007KT 24/M06 A2977 RMK A01 T02371060  RH  013%=      5-min Rain = 0
KLE1 101757Z 30006KT 24/M06 A2977 RMK A01 T02391060  RH  013%=      5-min Rain = 0
KLE1 101758Z 31007KT 24/M06 A2977 RMK A01 T02401060  RH  013%=      5-min Rain = 0
KLE1 101759Z 31006KT 24/M06 A2977 RMK A01 T02411059  RH  013%=      5-min Rain = 0
KLE1 101800Z 31005KT 24/M06 A2977 RMK A01 T02411062  RH  013%=      5-min Rain = 0
KLE1 101801Z 30007KT 24/M07 A2977 RMK A01 T02391065  RH  013%=      5-min Rain = 0
KLE1 101802Z 28004KT 24/M07 A2977 RMK A01 T02371065  RH  013%=      5-min Rain = 0
KLE1 101803Z 26008KT 24/M07 A2976 RMK A01 T02361065  RH  013%=      5-min Rain = 0
KLE1 101804Z 29005KT 23/M07 A2976 RMK A01 T02341068  RH  013%=      5-min Rain = 0
KLE1 101805Z 25003KT 23/M07 A2976 RMK A01 T02331066  RH  013%=      5-min Rain = 0
KLE1 101806Z 28004KT 23/M06 A2976 RMK A01 T02331064  RH  013%=      5-min Rain = 0
KLE1 101807Z 28005KT 24/M06 A2976 RMK A01 T02361063  RH  013%=      5-min Rain = 0
KLE1 101808Z 29003KT 24/M06 A2976 RMK A01 T02391064  RH  013%=      5-min Rain = 0
KLE1 101809Z 26001KT 24/M06 A2976 RMK A01 T02391063  RH  013%=      5-min Rain = 0
KLE1 101810Z 24003KT 24/M07 A2976 RMK A01 T02401067  RH  012%=      5-min Rain = 0
KLE1 101811Z 27004KT 24/M07 A2976 RMK A01 T02391069  RH  012%=      5-min Rain = 0
KLE1 101812Z 28007KT 24/M06 A2976 RMK A01 T02391062  RH  013%=      5-min Rain = 0
KLE1 101813Z 28009KT 25/M06 A2976 RMK A01 T02451063  RH  012%=      5-min Rain = 0
KLE1 101814Z 29007KT 25/M06 A2976 RMK A01 T02451063  RH  012%=      5-min Rain = 0
KLE1 101815Z 28006KT 25/M06 A2976 RMK A01 T02471061  RH  013%=      5-min Rain = 0
KLE1 101816Z 25004KT 25/M07 A2976 RMK A01 T02461065  RH  012%=      5-min Rain = 0
KLE1 101817Z 29006KT 25/M06 A2976 RMK A01 T02461063  RH  012%=      5-min Rain = 0
KLE1 101818Z 30006KT 25/M06 A2976 RMK A01 T02481064  RH  012%=      5-min Rain = 0
KLE1 101819Z 28005KT 25/M06 A2976 RMK A01 T02471063  RH  012%=      5-min Rain = 0
KLE1 101820Z 29007KT 25/M06 A2976 RMK A01 T02501062  RH  012%=      5-min Rain = 0
KLE1 101821Z 32006KT 25/M07 A2976 RMK A01 T02511066  RH  012%=      5-min Rain = 0
KLE1 101822Z 31007KT 25/M07 A2975 RMK A01 T02481066  RH  012%=      5-min Rain = 0
KLE1 101823Z 28007KT 25/M06 A2975 RMK A01 T02511060  RH  012%=      5-min Rain = 0
KLE1 101824Z 28007KT 25/M06 A2975 RMK A01 T02511063  RH  012%=      5-min Rain = 0
KLE1 101825Z 27005KT 25/M06 A2975 RMK A01 T02501064  RH  012%=      5-min Rain = 0
KLE1 101826Z 27002KT 25/M07 A2975 RMK A01 T02491067  RH  012%=      5-min Rain = 0
KLE1 101827Z 27006KT 25/M07 A2975 RMK A01 T02481065  RH  012%=      5-min Rain = 0
KLE1 101828Z 28005KT 25/M06 A2975 RMK A01 T02511063  RH  012%=      5-min Rain = 0
KLE1 101829Z 27004KT 25/M07 A2975 RMK A01 T02501066  RH  012%=      5-min Rain = 0
KLE1 101830Z 27007KT 25/M07 A2975 RMK A01 T02491065  RH  012%=      5-min Rain = 0
KLE1 101831Z 25003KT 25/M07 A2975 RMK A01 T02471070  RH  012%=      5-min Rain = 0
KLE1 101832Z 27006KT 25/M07 A2975 RMK A01 T02471066  RH  012%=      5-min Rain = 0
KLE1 101833Z 30007KT 25/M07 A2975 RMK A01 T02511065  RH  012%=      5-min Rain = 0
KLE1 101834Z 28003KT 25/M06 A2975 RMK A01 T02531064  RH  012%=      5-min Rain = 0
KLE1 101835Z 26005KT 26/M06 A2975 RMK A01 T02561063  RH  012%=      5-min Rain = 0
KLE1 101836Z 24007KT 26/M06 A2975 RMK A01 T02571060  RH  012%=      5-min Rain = 0
KLE1 101837Z 24008KT 26/M06 A2975 RMK A01 T02601061  RH  012%=      5-min Rain = 0
KLE1 101838Z 27006KT 26/M07 A2975 RMK A01 T02561069  RH  011%=      5-min Rain = 0
KLE1 101839Z 23006KT 25/M07 A2975 RMK A01 T02531070  RH  011%=      5-min Rain = 0
KLE1 101840Z 23006KT 25/M07 A2975 RMK A01 T02511069  RH  011%=      5-min Rain = 0
KLE1 101841Z 24005KT 25/M07 A2975 RMK A01 T02521067  RH  012%=      5-min Rain = 0
KLE1 101842Z 24004KT 25/M07 A2975 RMK A01 T02531067  RH  012%=      5-min Rain = 0
KLE1 101843Z 24003KT 25/M07 A2974 RMK A01 T02531066  RH  012%=      5-min Rain = 0
KLE1 101844Z 22002KT 25/M07 A2974 RMK A01 T02541066  RH  012%=      5-min Rain = 0
KLE1 101845Z 33003KT 26/M07 A2974 RMK A01 T02561065  RH  012%=      5-min Rain = 0
KLE1 101846Z 28003KT 26/M07 A2974 RMK A01 T02571065  RH  011%=      5-min Rain = 0
KLE1 101847Z 26003KT 26/M07 A2974 RMK A01 T02571068  RH  011%=      5-min Rain = 0
KLE1 101848Z 17002KT 26/M07 A2974 RMK A01 T02561067  RH  011%=      5-min Rain = 0
KLE1 101849Z 17001KT 26/M07 A2974 RMK A01 T02551067  RH  011%=      5-min Rain = 0
KLE1 101850Z 00000KT 26/M07 A2974 RMK A01 T02561068  RH  011%=      5-min Rain = 0
KLE1 101851Z 30004KT 26/M07 A2974 RMK A01 T02561068  RH  011%=      5-min Rain = 0
KLE1 101852Z 31004KT 26/M07 A2974 RMK A01 T02581068  RH  011%=      5-min Rain = 0
KLE1 101853Z 33002KT 26/M07 A2974 RMK A01 T02571068  RH  011%=      5-min Rain = 0
KLE1 101854Z 25004KT 26/M07 A2974 RMK A01 T02571067  RH  011%=      5-min Rain = 0
KLE1 101855Z 22004KT 26/M07 A2974 RMK A01 T02591066  RH  011%=      5-min Rain = 0
KLE1 101856Z 18003KT 26/M07 A2974 RMK A01 T02591068  RH  011%=      5-min Rain = 0
KLE1 101857Z 20003KT 26/M06 A2974 RMK A01 T02601064  RH  011%=      5-min Rain = 0
KLE1 101858Z 20003KT 26/M07 A2974 RMK A01 T02621065  RH  011%=      5-min Rain = 0
KLE1 101859Z 24002KT 26/M07 A2974 RMK A01 T02631067  RH  011%=      5-min Rain = 0
KLE1 101900Z 19001KT 26/M07 A2974 RMK A01 T02631068  RH  011%=      5-min Rain = 0
KLE1 101901Z 13000KT 26/M07 A2973 RMK A01 T02641065  RH  011%=      5-min Rain = 0
KLE1 101902Z 21002KT 27/M07 A2973 RMK A01 T02661070  RH  010%=      5-min Rain = 0
KLE1 101903Z 27008KT 27/M07 A2973 RMK A01 T02671070  RH  010%=      5-min Rain = 0
KLE1 101904Z 30006KT 27/M07 A2973 RMK A01 T02731070  RH  010%=      5-min Rain = 0
KLE1 101905Z 30008KT 27/M08 A2973 RMK A01 T02741084  RH  009%=      5-min Rain = 0
KLE1 101906Z 31009KT 27/M09 A2973 RMK A01 T02741090  RH  008%=      5-min Rain = 0
KLE1 101907Z 32008KT 27/M09 A2973 RMK A01 T02731090  RH  009%=      5-min Rain = 0
KLE1 101908Z 31008KT 27/M09 A2973 RMK A01 T02721089  RH  009%=      5-min Rain = 0
KLE1 101909Z 31006KT 27/M09 A2973 RMK A01 T02731089  RH  009%=      5-min Rain = 0
KLE1 101910Z 31007KT 27/M09 A2973 RMK A01 T02731091  RH  008%=      5-min Rain = 0
KLE1 101911Z 32005KT 27/M09 A2973 RMK A01 T02731094  RH  008%=      5-min Rain = 0
KLE1 101912Z 31005KT 27/M10 A2973 RMK A01 T02711095  RH  008%=      5-min Rain = 0
KLE1 101913Z 35005KT 27/M10 A2973 RMK A01 T02691096  RH  008%=      5-min Rain = 0
KLE1 101914Z 35005KT 27/M10 A2973 RMK A01 T02671095  RH  009%=      5-min Rain = 0
KLE1 101915Z 33001KT 27/M09 A2972 RMK A01 T02671094  RH  009%=      5-min Rain = 0
KLE1 101916Z 33002KT 27/M09 A2972 RMK A01 T02671091  RH  009%=      5-min Rain = 0
KLE1 101917Z 31006KT 27/M09 A2972 RMK A01 T02701090  RH  009%=      5-min Rain = 0
KLE1 101918Z 30004KT 27/M09 A2972 RMK A01 T02711090  RH  009%=      5-min Rain = 0
KLE1 101919Z 27003KT 27/M09 A2972 RMK A01 T02701092  RH  009%=      5-min Rain = 0
KLE1 101920Z 28003KT 27/M09 A2972 RMK A01 T02701092  RH  009%=      5-min Rain = 0
KLE1 101921Z 28002KT 27/M09 A2972 RMK A01 T02691092  RH  009%=      5-min Rain = 0
KLE1 101922Z 27003KT 27/M09 A2972 RMK A01 T02691091  RH  009%=      5-min Rain = 0
KLE1 101923Z 30006KT 27/M09 A2972 RMK A01 T02711091  RH  009%=      5-min Rain = 0
KLE1 101924Z 31010KT 28/M10 A2972 RMK A01 T02751096  RH  008%=      5-min Rain = 0
KLE1 101925Z 32007KT 28/M10 A2972 RMK A01 T02761101  RH  008%=      5-min Rain = 0
KLE1 101926Z 33007KT 28/M10 A2971 RMK A01 T02751099  RH  008%=      5-min Rain = 0
KLE1 101927Z 35008KT 28/M10 A2971 RMK A01 T02761101  RH  008%=      5-min Rain = 0
KLE1 101928Z 34006KT 28/M10 A2971 RMK A01 T02751098  RH  008%=      5-min Rain = 0
KLE1 101929Z 29006KT 28/M09 A2971 RMK A01 T02771092  RH  008%=      5-min Rain = 0
KLE1 101930Z 27005KT 28/M09 A2971 RMK A01 T02781090  RH  008%=      5-min Rain = 0
KLE1 101931Z 27008G15KT 28/M09 A2971 RMK A01 T02791088  RH  008%=      5-min Rain = 0
KLE1 101932Z 30013KT 28/M11 A2971 RMK A01 T02841105  RH  007%=      5-min Rain = 0
KLE1 101933Z 32013KT 29/M11 A2971 RMK A01 T02881114  RH  006%=      5-min Rain = 0
KLE1 101934Z 33012KT 29/M12 A2971 RMK A01 T02861122  RH  006%=      5-min Rain = 0
KLE1 101935Z 34007KT 28/M12 A2971 RMK A01 T02831123  RH  006%=      5-min Rain = 0
KLE1 101936Z 36006KT 28/M13 A2971 RMK A01 T02811126  RH  006%=      5-min Rain = 0
KLE1 101937Z 35005KT 28/M13 A2971 RMK A01 T02801125  RH  006%=      5-min Rain = 0
KLE1 101938Z 28007KT 28/M12 A2971 RMK A01 T02811121  RH  006%=      5-min Rain = 0
KLE1 101939Z 27012G17KT 28/M12 A2971 RMK A01 T02831120  RH  006%=      5-min Rain = 0
KLE1 101940Z 29016G21KT 28/M12 A2971 RMK A01 T02831123  RH  006%=      5-min Rain = 0
KLE1 101941Z 29016KT 28/M12 A2971 RMK A01 T02831124  RH  006%=      5-min Rain = 0
KLE1 101942Z 28012KT 29/M12 A2971 RMK A01 T02861122  RH  006%=      5-min Rain = 0
KLE1 101943Z 29013G18KT 29/M12 A2971 RMK A01 T02881123  RH  006%=      5-min Rain = 0
KLE1 101944Z 29013KT 29/M12 A2971 RMK A01 T02881124  RH  006%=      5-min Rain = 0
KLE1 101945Z 29014KT 29/M13 A2971 RMK A01 T02851125  RH  006%=      5-min Rain = 0
KLE1 101946Z 27010KT 29/M13 A2971 RMK A01 T02851126  RH  006%=      5-min Rain = 0
KLE1 101947Z 26010KT 28/M13 A297 RMK A01 T02841126  RH  006%=      5-min Rain = 0
KLE1 101948Z 29010KT 28/M13 A297 RMK A01 T02841126  RH  006%=      5-min Rain = 0
KLE1 101949Z 31010KT 28/M12 A297 RMK A01 T02831124  RH  006%=      5-min Rain = 0
KLE1 101950Z 31009KT 28/M12 A297 RMK A01 T02841122  RH  006%=      5-min Rain = 0
KLE1 101951Z 31009KT 29/M12 A297 RMK A01 T02851122  RH  006%=      5-min Rain = 0
KLE1 101952Z 29009KT 29/M12 A297 RMK A01 T02861122  RH  006%=      5-min Rain = 0
KLE1 101953Z 31009KT 29/M12 A297 RMK A01 T02861121  RH  006%=      5-min Rain = 0
KLE1 101954Z 29012G18KT 29/M12 A297 RMK A01 T02861120  RH  006%=      5-min Rain = 0
KLE1 101955Z 31015KT 29/M12 A297 RMK A01 T02881118  RH  006%=      5-min Rain = 0
KLE1 101956Z 32014KT 29/M12 A297 RMK A01 T02881119  RH  006%=      5-min Rain = 0
KLE1 101957Z 31015KT 29/M12 A297 RMK A01 T02901123  RH  006%=      5-min Rain = 0
KLE1 101958Z 29014KT 29/M12 A297 RMK A01 T02891123  RH  006%=      5-min Rain = 0
KLE1 101959Z 29013KT 29/M12 A297 RMK A01 T02881124  RH  006%=      5-min Rain = 0
KLE1 102000Z 30011KT 29/M13 A297 RMK A01 T02871125  RH  006%=      5-min Rain = 0
KLE1 102001Z 30013KT 29/M13 A297 RMK A01 T02851128  RH  006%=      5-min Rain = 0
KLE1 102002Z 30008KT 28/M13 A297 RMK A01 T02841128  RH  006%=      5-min Rain = 0
KLE1 102003Z 29006KT 28/M13 A297 RMK A01 T02831127  RH  006%=      5-min Rain = 0
KLE1 102004Z 28011G16KT 28/M12 A297 RMK A01 T02831123  RH  006%=      5-min Rain = 0
KLE1 102005Z 29013KT 29/M13 A297 RMK A01 T02851125  RH  006%=      5-min Rain = 0
KLE1 102006Z 32008KT 29/M13 A297 RMK A01 T02851126  RH  006%=      5-min Rain = 0
KLE1 102007Z 31007KT 29/M13 A297 RMK A01 T02851126  RH  006%=      5-min Rain = 0
KLE1 102008Z 30011KT 29/M12 A2969 RMK A01 T02861122  RH  006%=      5-min Rain = 0
KLE1 102009Z 29009G14KT 29/M12 A2969 RMK A01 T02901117  RH  006%=      5-min Rain = 0
KLE1 102010Z 33014KT 29/M12 A2969 RMK A01 T02921119  RH  006%=      5-min Rain = 0
KLE1 102011Z 31020KT 29/M12 A2969 RMK A01 T02911124  RH  006%=      5-min Rain = 0
KLE1 102012Z 30009G14KT 29/M13 A297 RMK A01 T02861129  RH  006%=      5-min Rain = 0
KLE1 102013Z 31007KT 28/M13 A2969 RMK A01 T02821130  RH  006%=      5-min Rain = 0
KLE1 102014Z 31007KT 28/M13 A2969 RMK A01 T02811129  RH  006%=      5-min Rain = 0
KLE1 102015Z 30010KT 28/M13 A2969 RMK A01 T02801128  RH  006%=      5-min Rain = 0
KLE1 102016Z 30015KT 28/M13 A2969 RMK A01 T02821125  RH  006%=      5-min Rain = 0
KLE1 102017Z 30014KT 28/M12 A2969 RMK A01 T02841124  RH  006%=      5-min Rain = 0
KLE1 102018Z 30016KT 29/M12 A2969 RMK A01 T02861124  RH  006%=      5-min Rain = 0
KLE1 102019Z 30012KT 29/M12 A2969 RMK A01 T02861123  RH  006%=      5-min Rain = 0
KLE1 102020Z 31012KT 29/M12 A2969 RMK A01 T02881118  RH  006%=      5-min Rain = 0
KLE1 102021Z 32009KT 29/M12 A2969 RMK A01 T02891118  RH  006%=      5-min Rain = 0
KLE1 102022Z 32010KT 29/M12 A2969 RMK A01 T02871120  RH  006%=      5-min Rain = 0
KLE1 102023Z 31012KT 29/M12 A2969 RMK A01 T02861119  RH  006%=      5-min Rain = 0
KLE1 102024Z 32010KT 29/M12 A2969 RMK A01 T02871120  RH  006%=      5-min Rain = 0
KLE1 102025Z 28010KT 29/M12 A2969 RMK A01 T02881116  RH  006%=      5-min Rain = 0
KLE1 102026Z 26007KT 29/M12 A2969 RMK A01 T02891123  RH  006%=      5-min Rain = 0
KLE1 102027Z 26007KT 29/M12 A2969 RMK A01 T02881122  RH  006%=      5-min Rain = 0
KLE1 102028Z 29009KT 29/M12 A2969 RMK A01 T02881120  RH  006%=      5-min Rain = 0
KLE1 102029Z 30010KT 29/M12 A2969 RMK A01 T02881119  RH  006%=      5-min Rain = 0
KLE1 102030Z 29011KT 29/M12 A2969 RMK A01 T02891118  RH  006%=      5-min Rain = 0
KLE1 102031Z 29009KT 29/M12 A2969 RMK A01 T02891117  RH  006%=      5-min Rain = 0
KLE1 102032Z 30009KT 29/M11 A2969 RMK A01 T02911113  RH  006%=      5-min Rain = 0
KLE1 102033Z 31013KT 29/M11 A2969 RMK A01 T02931113  RH  006%=      5-min Rain = 0
KLE1 102034Z 30013KT 29/M12 A2969 RMK A01 T02931116  RH  006%=      5-min Rain = 0
KLE1 102035Z 29012KT 29/M12 A2969 RMK A01 T02901116  RH  006%=      5-min Rain = 0
KLE1 102036Z 29015KT 29/M12 A2969 RMK A01 T02881115  RH  006%=      5-min Rain = 0
KLE1 102037Z 31013KT 29/M11 A2969 RMK A01 T02861113  RH  007%=      5-min Rain = 0
KLE1 102038Z 31008KT 28/M11 A2969 RMK A01 T02841113  RH  007%=      5-min Rain = 0
KLE1 102039Z 32009KT 29/M11 A2969 RMK A01 T02851108  RH  007%=      5-min Rain = 0
KLE1 102040Z 34008KT 29/M11 A2969 RMK A01 T02881109  RH  007%=      5-min Rain = 0
KLE1 102041Z 34006KT 29/M11 A2969 RMK A01 T02881110  RH  007%=      5-min Rain = 0
KLE1 102042Z 34006KT 29/M11 A2969 RMK A01 T02881109  RH  007%=      5-min Rain = 0
KLE1 102043Z 34008KT 29/M11 A2969 RMK A01 T02901106  RH  007%=      5-min Rain = 0
KLE1 102044Z 31008KT 29/M11 A2969 RMK A01 T02921106  RH  007%=      5-min Rain = 0
KLE1 102045Z 31010KT 29/M11 A2969 RMK A01 T02921109  RH  007%=      5-min Rain = 0
KLE1 102046Z 29016KT 29/M11 A2969 RMK A01 T02911110  RH  007%=      5-min Rain = 0
KLE1 102047Z 29013KT 29/M11 A2969 RMK A01 T02931111  RH  006%=      5-min Rain = 0
KLE1 102048Z 29014KT 29/M11 A2969 RMK A01 T02931112  RH  006%=      5-min Rain = 0
KLE1 102049Z 28014KT 29/M11 A2969 RMK A01 T02941111  RH  006%=      5-min Rain = 0
KLE1 102050Z 29012KT 30/M11 A2969 RMK A01 T02971110  RH  006%=      5-min Rain = 0
KLE1 102051Z 29015KT 30/M11 A2969 RMK A01 T02991112  RH  006%=      5-min Rain = 0
KLE1 102052Z 28015KT 30/M11 A2969 RMK A01 T02981113  RH  006%=      5-min Rain = 0
KLE1 102053Z 27013KT 29/M11 A2969 RMK A01 T02941113  RH  006%=      5-min Rain = 0
KLE1 102054Z 27012KT 29/M12 A2969 RMK A01 T02931115  RH  006%=      5-min Rain = 0
KLE1 102055Z 26010KT 29/M12 A2969 RMK A01 T02911116  RH  006%=      5-min Rain = 0
KLE1 102056Z 25009KT 29/M11 A2969 RMK A01 T02911113  RH  006%=      5-min Rain = 0
KLE1 102057Z 26012KT 29/M11 A2969 RMK A01 T02931113  RH  006%=      5-min Rain = 0
KLE1 102058Z 28014KT 29/M11 A2969 RMK A01 T02941112  RH  006%=      5-min Rain = 0
KLE1 102059Z 27012KT 29/M11 A2969 RMK A01 T02931113  RH  006%=      5-min Rain = 0
KLE1 102100Z 28011KT 29/M11 A2969 RMK A01 T02931111  RH  006%=      5-min Rain = 0
KLE1 102101Z 27006KT 29/M12 A2969 RMK A01 T02931115  RH  006%=      5-min Rain = 0
KLE1 102102Z 25009KT 29/M11 A2969 RMK A01 T02901114  RH  006%=      5-min Rain = 0
KLE1 102103Z 26009KT 29/M11 A2969 RMK A01 T02901111  RH  007%=      5-min Rain = 0
KLE1 102104Z 26009KT 29/M11 A2969 RMK A01 T02921114  RH  006%=      5-min Rain = 0
KLE1 102105Z 28011KT 29/M11 A2969 RMK A01 T02921112  RH  006%=      5-min Rain = 0
KLE1 102106Z 28009KT 29/M11 A2969 RMK A01 T02911112  RH  006%=      5-min Rain = 0
KLE1 102107Z 28008KT 29/M11 A2969 RMK A01 T02911112  RH  006%=      5-min Rain = 0
KLE1 102108Z 30013KT 29/M11 A2969 RMK A01 T02911108  RH  007%=      5-min Rain = 0
KLE1 102109Z 33014KT 29/M11 A2969 RMK A01 T02931113  RH  006%=      5-min Rain = 0
KLE1 102110Z 31012G17KT 29/M12 A2969 RMK A01 T02901116  RH  006%=      5-min Rain = 0
KLE1 102111Z 29011KT 29/M12 A2969 RMK A01 T02891115  RH  006%=      5-min Rain = 0
KLE1 102112Z 31008KT 29/M12 A2969 RMK A01 T02881115  RH  006%=      5-min Rain = 0
KLE1 102113Z 31009KT 29/M11 A2969 RMK A01 T02911112  RH  006%=      5-min Rain = 0
KLE1 102114Z 29008KT 29/M12 A2969 RMK A01 T02911119  RH  006%=      5-min Rain = 0
KLE1 102115Z 31012G17KT 29/M12 A2969 RMK A01 T02881119  RH  006%=      5-min Rain = 0
KLE1 102116Z 30016KT 29/M12 A2969 RMK A01 T02871115  RH  006%=      5-min Rain = 0
KLE1 102117Z 28011KT 29/M12 A2969 RMK A01 T02891115  RH  006%=      5-min Rain = 0
KLE1 102118Z 28012KT 29/M12 A2969 RMK A01 T02891118  RH  006%=      5-min Rain = 0
KLE1 102119Z 29012KT 29/M12 A2969 RMK A01 T02891117  RH  006%=      5-min Rain = 0
KLE1 102120Z 28014KT 29/M12 A2969 RMK A01 T02881116  RH  006%=      5-min Rain = 0
KLE1 102121Z 28015KT 29/M11 A2969 RMK A01 T02901113  RH  006%=      5-min Rain = 0
KLE1 102122Z 27014KT 29/M12 A2969 RMK A01 T02911115  RH  006%=      5-min Rain = 0
KLE1 102123Z 28013KT 29/M11 A2969 RMK A01 T02901114  RH  006%=      5-min Rain = 0
KLE1 102124Z 28011KT 29/M12 A2969 RMK A01 T02911117  RH  006%=      5-min Rain = 0
KLE1 102125Z 28011KT 29/M12 A2969 RMK A01 T02891119  RH  006%=      5-min Rain = 0
KLE1 102126Z 28010KT 29/M12 A2969 RMK A01 T02881117  RH  006%=      5-min Rain = 0
KLE1 102127Z 29010KT 29/M12 A2969 RMK A01 T02901115  RH  006%=      5-min Rain = 0
KLE1 102128Z 29010KT 29/M12 A2969 RMK A01 T02901116  RH  006%=      5-min Rain = 0
KLE1 102129Z 29010KT 29/M12 A2969 RMK A01 T02901115  RH  006%=      5-min Rain = 0
KLE1 102130Z 28011KT 29/M11 A2969 RMK A01 T02901114  RH  006%=      5-min Rain = 0
KLE1 102131Z 29010KT 29/M11 A2969 RMK A01 T02901114  RH  006%=      5-min Rain = 0
KLE1 102132Z 28010KT 29/M11 A2969 RMK A01 T02911113  RH  006%=      5-min Rain = 0
KLE1 102133Z 28006KT 29/M12 A2969 RMK A01 T02901115  RH  006%=      5-min Rain = 0
KLE1 102134Z 31007KT 29/M12 A2969 RMK A01 T02881115  RH  006%=      5-min Rain = 0
KLE1 102135Z 30005KT 29/M11 A2969 RMK A01 T02871114  RH  006%=      5-min Rain = 0
KLE1 102136Z 31007KT 29/M11 A2969 RMK A01 T02881114  RH  006%=      5-min Rain = 0
KLE1 102137Z 29008G13KT 29/M12 A2969 RMK A01 T02881116  RH  006%=      5-min Rain = 0
KLE1 102138Z 30008G16KT 29/M12 A2969 RMK A01 T02861121  RH  006%=      5-min Rain = 0
KLE1 102139Z 29015KT 29/M12 A2969 RMK A01 T02871115  RH  006%=      5-min Rain = 0
KLE1 102140Z 29016KT 29/M12 A2969 RMK A01 T02881118  RH  006%=      5-min Rain = 0
KLE1 102141Z 29013KT 29/M12 A2969 RMK A01 T02871119  RH  006%=      5-min Rain = 0
KLE1 102142Z 29009KT 29/M12 A2969 RMK A01 T02861120  RH  006%=      5-min Rain = 0
KLE1 102143Z 29008KT 29/M12 A2969 RMK A01 T02871120  RH  006%=      5-min Rain = 0
KLE1 102144Z 28010G15KT 29/M12 A2969 RMK A01 T02861120  RH  006%=      5-min Rain = 0
KLE1 102145Z 26012KT 29/M12 A2969 RMK A01 T02861116  RH  006%=      5-min Rain = 0
KLE1 102146Z 25011KT 29/M12 A2969 RMK A01 T02871115  RH  006%=      5-min Rain = 0
KLE1 102147Z 29009KT 29/M12 A2969 RMK A01 T02881115  RH  006%=      5-min Rain = 0
KLE1 102148Z 32009KT 29/M11 A2969 RMK A01 T02891112  RH  007%=      5-min Rain = 0
KLE1 102149Z 31009KT 29/M11 A2969 RMK A01 T02911110  RH  007%=      5-min Rain = 0
KLE1 102150Z 34009G14KT 29/M11 A2969 RMK A01 T02921113  RH  006%=      5-min Rain = 0
KLE1 102151Z 35003KT 29/M12 A2969 RMK A01 T02881116  RH  006%=      5-min Rain = 0
KLE1 102152Z 31008KT 29/M11 A2969 RMK A01 T02871113  RH  007%=      5-min Rain = 0
KLE1 102153Z 29008KT 29/M11 A2969 RMK A01 T02891111  RH  007%=      5-min Rain = 0
KLE1 102154Z 30003KT 29/M12 A2969 RMK A01 T02881119  RH  006%=      5-min Rain = 0
KLE1 102155Z 30004KT 29/M12 A2969 RMK A01 T02871115  RH  007%=      5-min Rain = 0
KLE1 102156Z 32010G15KT 29/M11 A2969 RMK A01 T02871113  RH  007%=      5-min Rain = 0
KLE1 102157Z 33012KT 29/M11 A2969 RMK A01 T02891110  RH  007%=      5-min Rain = 0
KLE1 102158Z 33011KT 29/M11 A2969 RMK A01 T02911110  RH  007%=      5-min Rain = 0
KLE1 102159Z 31016KT 29/M11 A2969 RMK A01 T02931108  RH  007%=      5-min Rain = 0
KLE1 102200Z 32013KT 29/M11 A2969 RMK A01 T02921113  RH  006%=      5-min Rain = 0
KLE1 102201Z 33010KT 29/M12 A2969 RMK A01 T02891115  RH  006%=      5-min Rain = 0
KLE1 102202Z 32010KT 29/M11 A2969 RMK A01 T02881114  RH  006%=      5-min Rain = 0
KLE1 102203Z 31007KT 29/M11 A2969 RMK A01 T02881114  RH  006%=      5-min Rain = 0
KLE1 102204Z 29007KT 29/M12 A2969 RMK A01 T02871116  RH  006%=      5-min Rain = 0
KLE1 102205Z 29008KT 29/M12 A2969 RMK A01 T02851115  RH  007%=      5-min Rain = 0
KLE1 102206Z 29007KT 29/M12 A2969 RMK A01 T02861116  RH  006%=      5-min Rain = 0
KLE1 102207Z 30005KT 29/M12 A2969 RMK A01 T02861118  RH  006%=      5-min Rain = 0
KLE1 102208Z 30004KT 29/M12 A2969 RMK A01 T02861117  RH  006%=      5-min Rain = 0
KLE1 102209Z 31004KT 29/M12 A2969 RMK A01 T02861115  RH  006%=      5-min Rain = 0
KLE1 102210Z 30003KT 29/M12 A2969 RMK A01 T02861117  RH  006%=      5-min Rain = 0
KLE1 102211Z 31003KT 29/M12 A2969 RMK A01 T02851117  RH  006%=      5-min Rain = 0
KLE1 102212Z 32005KT 29/M12 A2969 RMK A01 T02851118  RH  006%=      5-min Rain = 0
KLE1 102213Z 34004KT 28/M12 A2969 RMK A01 T02841118  RH  006%=      5-min Rain = 0
KLE1 102214Z 29007KT 28/M11 A2969 RMK A01 T02841113  RH  007%=      5-min Rain = 0
KLE1 102215Z 32009KT 29/M11 A2969 RMK A01 T02891108  RH  007%=      5-min Rain = 0
KLE1 102216Z 33008KT 29/M11 A2969 RMK A01 T02911109  RH  007%=      5-min Rain = 0
KLE1 102217Z 32007KT 29/M11 A2969 RMK A01 T02911109  RH  007%=      5-min Rain = 0
KLE1 102218Z 35010KT 29/M10 A2969 RMK A01 T02931104  RH  007%=      5-min Rain = 0
KLE1 102219Z 36011KT 29/M10 A2969 RMK A01 T02941104  RH  007%=      5-min Rain = 0
KLE1 102220Z 34011KT 29/M11 A2969 RMK A01 T02931107  RH  007%=      5-min Rain = 0
KLE1 102221Z 00011KT 29/M11 A2969 RMK A01 T02901108  RH  007%=      5-min Rain = 0
KLE1 102222Z 35008KT 29/M11 A2969 RMK A01 T02881110  RH  007%=      5-min Rain = 0
KLE1 102223Z 36008KT 29/M11 A2969 RMK A01 T02861111  RH  007%=      5-min Rain = 0
KLE1 102224Z 36006KT 28/M11 A2969 RMK A01 T02841111  RH  007%=      5-min Rain = 0
KLE1 102225Z 35009KT 28/M11 A2969 RMK A01 T02831110  RH  007%=      5-min Rain = 0
KLE1 102226Z 33012KT 28/M11 A2969 RMK A01 T02841109  RH  007%=      5-min Rain = 0
KLE1 102227Z 34009KT 29/M11 A2969 RMK A01 T02851109  RH  007%=      5-min Rain = 0
KLE1 102228Z 35010KT 29/M11 A2969 RMK A01 T02851111  RH  007%=      5-min Rain = 0
KLE1 102229Z 36007KT 28/M11 A2969 RMK A01 T02841112  RH  007%=      5-min Rain = 0
KLE1 102230Z 36007KT 28/M11 A2969 RMK A01 T02841111  RH  007%=      5-min Rain = 0
KLE1 102231Z 36008G13KT 28/M11 A2969 RMK A01 T02841109  RH  007%=      5-min Rain = 0
KLE1 102232Z 34010KT 28/M11 A2969 RMK A01 T02841109  RH  007%=      5-min Rain = 0
KLE1 102233Z 35009KT 28/M11 A2969 RMK A01 T02831110  RH  007%=      5-min Rain = 0
KLE1 102234Z 34012KT 28/M11 A2969 RMK A01 T02821108  RH  007%=      5-min Rain = 0
KLE1 102235Z 34013KT 28/M11 A2969 RMK A01 T02801111  RH  007%=      5-min Rain = 0
KLE1 102236Z 35013KT 28/M11 A2969 RMK A01 T02771113  RH  007%=      5-min Rain = 0
KLE1 102237Z 35013KT 27/M11 A2969 RMK A01 T02741114  RH  007%=      5-min Rain = 0
KLE1 102238Z 33011KT 27/M11 A297 RMK A01 T02721114  RH  007%=      5-min Rain = 0
KLE1 102239Z 33009KT 27/M11 A297 RMK A01 T02701114  RH  007%=      5-min Rain = 0
KLE1 102240Z 31010KT 27/M11 A297 RMK A01 T02701113  RH  007%=      5-min Rain = 0
KLE1 102241Z 32009KT 27/M11 A297 RMK A01 T02701114  RH  007%=      5-min Rain = 0
KLE1 102242Z 33007KT 27/M11 A297 RMK A01 T02691114  RH  007%=      5-min Rain = 0
KLE1 102243Z 32007KT 27/M12 A297 RMK A01 T02691116  RH  007%=      5-min Rain = 0
KLE1 102244Z 31005KT 27/M12 A297 RMK A01 T02691116  RH  007%=      5-min Rain = 0
KLE1 102245Z 30005KT 27/M12 A297 RMK A01 T02681117  RH  007%=      5-min Rain = 0
KLE1 102246Z 32006KT 27/M12 A297 RMK A01 T02681115  RH  007%=      5-min Rain = 0
KLE1 102247Z 34008KT 27/M12 A297 RMK A01 T02681115  RH  007%=      5-min Rain = 0
KLE1 102248Z 34007KT 27/M11 A297 RMK A01 T02681113  RH  007%=      5-min Rain = 0
KLE1 102249Z 34010KT 27/M11 A297 RMK A01 T02691110  RH  007%=      5-min Rain = 0
KLE1 102250Z 34012KT 27/M11 A297 RMK A01 T02701108  RH  008%=      5-min Rain = 0
KLE1 102251Z 33015KT 27/M11 A297 RMK A01 T02711107  RH  008%=      5-min Rain = 0
KLE1 102252Z 34014KT 27/M11 A297 RMK A01 T02711107  RH  008%=      5-min Rain = 0
KLE1 102253Z 34013KT 27/M11 A297 RMK A01 T02721108  RH  007%=      5-min Rain = 0
KLE1 102254Z 33013KT 27/M11 A297 RMK A01 T02731108  RH  007%=      5-min Rain = 0
KLE1 102255Z 35010KT 27/M11 A297 RMK A01 T02731107  RH  007%=      5-min Rain = 0
KLE1 102256Z 34013KT 27/M11 A297 RMK A01 T02731107  RH  008%=      5-min Rain = 0
KLE1 102257Z 34012KT 27/M11 A297 RMK A01 T02731107  RH  008%=      5-min Rain = 0
KLE1 102258Z 35012KT 27/M11 A297 RMK A01 T02721106  RH  008%=      5-min Rain = 0
KLE1 102259Z 34013KT 27/M11 A297 RMK A01 T02701107  RH  008%=      5-min Rain = 0
KLE1 102300Z 35015KT 27/M11 A2971 RMK A01 T02701108  RH  008%=      5-min Rain = 0
KLE1 102301Z 35013KT 27/M11 A2971 RMK A01 T02701108  RH  008%=      5-min Rain = 0
KLE1 102302Z 34011KT 27/M11 A2971 RMK A01 T02691108  RH  008%=      5-min Rain = 0
KLE1 102303Z 35011KT 27/M11 A2971 RMK A01 T02671110  RH  008%=      5-min Rain = 0
KLE1 102304Z 35012KT 27/M11 A2971 RMK A01 T02671109  RH  008%=      5-min Rain = 0
KLE1 102305Z 35013KT 27/M11 A2971 RMK A01 T02671108  RH  008%=      5-min Rain = 0
KLE1 102306Z 35011KT 27/M11 A2971 RMK A01 T02671109  RH  008%=      5-min Rain = 0
KLE1 102307Z 35009KT 27/M11 A2971 RMK A01 T02671111  RH  008%=      5-min Rain = 0
KLE1 102308Z 35008KT 27/M11 A2971 RMK A01 T02671110  RH  008%=      5-min Rain = 0
KLE1 102309Z 00009KT 27/M11 A2971 RMK A01 T02671109  RH  008%=      5-min Rain = 0
KLE1 102310Z 36012KT 27/M11 A2971 RMK A01 T02671107  RH  008%=      5-min Rain = 0
KLE1 102311Z 35014KT 27/M11 A2971 RMK A01 T02661108  RH  008%=      5-min Rain = 0
KLE1 102312Z 35012KT 27/M11 A2971 RMK A01 T02651108  RH  008%=      5-min Rain = 0
KLE1 102313Z 35012KT 27/M11 A2971 RMK A01 T02651106  RH  008%=      5-min Rain = 0
KLE1 102314Z 35011KT 27/M11 A2971 RMK A01 T02651109  RH  008%=      5-min Rain = 0
KLE1 102315Z 36009KT 27/M11 A2972 RMK A01 T02671107  RH  008%=      5-min Rain = 0
KLE1 102316Z 36010KT 27/M11 A2972 RMK A01 T02691105  RH  008%=      5-min Rain = 0
KLE1 102317Z 36008KT 27/M11 A2972 RMK A01 T02711105  RH  008%=      5-min Rain = 0
KLE1 102318Z 35009KT 27/M10 A2972 RMK A01 T02721104  RH  008%=      5-min Rain = 0
KLE1 102319Z 35009KT 27/M11 A2972 RMK A01 T02741105  RH  008%=      5-min Rain = 0
KLE1 102320Z 35008KT 27/M11 A2972 RMK A01 T02741106  RH  008%=      5-min Rain = 0
KLE1 102321Z 36008KT 27/M11 A2972 RMK A01 T02731105  RH  008%=      5-min Rain = 0
KLE1 102322Z 00009KT 27/M11 A2972 RMK A01 T02721107  RH  008%=      5-min Rain = 0
KLE1 102323Z 36010KT 27/M11 A2972 RMK A01 T02711107  RH  008%=      5-min Rain = 0
KLE1 102324Z 35011KT 27/M11 A2972 RMK A01 T02701106  RH  008%=      5-min Rain = 0
KLE1 102325Z 35010KT 27/M11 A2972 RMK A01 T02681107  RH  008%=      5-min Rain = 0
KLE1 102326Z 35010KT 27/M11 A2972 RMK A01 T02671107  RH  008%=      5-min Rain = 0
KLE1 102327Z 34010KT 27/M11 A2972 RMK A01 T02661107  RH  008%=      5-min Rain = 0
KLE1 102328Z 34011KT 27/M11 A2972 RMK A01 T02651107  RH  008%=      5-min Rain = 0
KLE1 102329Z 34009KT 27/M11 A2972 RMK A01 T02651107  RH  008%=      5-min Rain = 0
KLE1 102330Z 34010KT 26/M11 A2972 RMK A01 T02641106  RH  008%=      5-min Rain = 0
KLE1 102331Z 34010KT 26/M11 A2972 RMK A01 T02621108  RH  008%=      5-min Rain = 0
KLE1 102332Z 34008KT 26/M11 A2972 RMK A01 T02621109  RH  008%=      5-min Rain = 0
KLE1 102333Z 34008KT 26/M11 A2972 RMK A01 T02611108  RH  008%=      5-min Rain = 0
KLE1 102334Z 35011KT 26/M11 A2972 RMK A01 T02601108  RH  008%=      5-min Rain = 0
KLE1 102335Z 35011KT 26/M11 A2972 RMK A01 T02601108  RH  008%=      5-min Rain = 0
KLE1 102336Z 35011KT 26/M11 A2972 RMK A01 T02601109  RH  008%=      5-min Rain = 0
KLE1 102337Z 35013KT 26/M11 A2972 RMK A01 T02601109  RH  008%=      5-min Rain = 0
KLE1 102338Z 35011KT 26/M11 A2972 RMK A01 T02601109  RH  008%=      5-min Rain = 0
KLE1 102339Z 36010KT 26/M11 A2972 RMK A01 T02601108  RH  008%=      5-min Rain = 0
KLE1 102340Z 00011KT 26/M11 A2972 RMK A01 T02591107  RH  008%=      5-min Rain = 0
KLE1 102341Z 35011KT 26/M11 A2972 RMK A01 T02581107  RH  008%=      5-min Rain = 0
KLE1 102342Z 36011KT 26/M11 A2972 RMK A01 T02581108  RH  008%=      5-min Rain = 0
KLE1 102343Z 35011KT 26/M11 A2973 RMK A01 T02581108  RH  008%=      5-min Rain = 0
KLE1 102344Z 36011KT 26/M11 A2973 RMK A01 T02581107  RH  008%=      5-min Rain = 0
KLE1 102345Z 35011KT 26/M11 A2973 RMK A01 T02581108  RH  008%=      5-min Rain = 0
KLE1 102346Z 35010KT 26/M11 A2973 RMK A01 T02581108  RH  008%=      5-min Rain = 0
KLE1 102347Z 35009KT 26/M11 A2973 RMK A01 T02581106  RH  008%=      5-min Rain = 0
KLE1 102348Z 35009KT 26/M11 A2973 RMK A01 T02581105  RH  008%=      5-min Rain = 0
KLE1 102349Z 35008KT 26/M11 A2973 RMK A01 T02581106  RH  008%=      5-min Rain = 0
KLE1 102350Z 35008KT 26/M11 A2973 RMK A01 T02581105  RH  008%=      5-min Rain = 0
KLE1 102351Z 34008KT 26/M10 A2973 RMK A01 T02581104  RH  008%=      5-min Rain = 0
KLE1 102352Z 35007KT 26/M10 A2973 RMK A01 T02581104  RH  008%=      5-min Rain = 0
KLE1 102353Z 35009KT 26/M10 A2973 RMK A01 T02591104  RH  008%=      5-min Rain = 0
KLE1 102354Z 35008KT 26/M11 A2973 RMK A01 T02601105  RH  008%=      5-min Rain = 0
KLE1 102355Z 35008KT 26/M10 A2973 RMK A01 T02611104  RH  008%=      5-min Rain = 0
KLE1 102356Z 35008KT 26/M11 A2973 RMK A01 T02621105  RH  008%=      5-min Rain = 0
KLE1 102357Z 35009KT 26/M11 A2973 RMK A01 T02631105  RH  008%=      5-min Rain = 0
KLE1 102358Z 36010KT 26/M11 A2973 RMK A01 T02631105  RH  008%=      5-min Rain = 0
KLE1 102359Z 36009KT 26/M11 A2973 RMK A01 T02631106  RH  008%=      5-min Rain = 0
KLE1 110000Z 00009KT 26/M11 A2973 RMK A01 T02631106  RH  008%=      5-min Rain = 0
KLE1 110001Z 36008KT 26/M11 A2973 RMK A01 T02631105  RH  008%=      5-min Rain = 0
KLE1 110002Z 36009KT 26/M11 A2973 RMK A01 T02621105  RH  008%=      5-min Rain = 0
KLE1 110003Z 00008KT 26/M11 A2973 RMK A01 T02621106  RH  008%=      5-min Rain = 0
KLE1 110004Z 00008KT 26/M10 A2973 RMK A01 T02611104  RH  008%=      5-min Rain = 0
KLE1 110005Z 01007KT 26/M10 A2973 RMK A01 T02591104  RH  008%=      5-min Rain = 0
KLE1 110006Z 01008KT 26/M10 A2973 RMK A01 T02581104  RH  008%=      5-min Rain = 0
KLE1 110007Z 01009KT 26/M11 A2973 RMK A01 T02571105  RH  008%=      5-min Rain = 0
KLE1 110008Z 01008KT 26/M10 A2973 RMK A01 T02561104  RH  008%=      5-min Rain = 0
KLE1 110009Z 01011KT 26/M10 A2973 RMK A01 T02551102  RH  009%=      5-min Rain = 0
KLE1 110010Z 02010KT 25/M10 A2973 RMK A01 T02541100  RH  009%=      5-min Rain = 0
KLE1 110011Z 01011KT 25/M10 A2973 RMK A01 T02521100  RH  009%=      5-min Rain = 0
KLE1 110012Z 02012KT 25/M10 A2973 RMK A01 T02511099  RH  009%=      5-min Rain = 0
KLE1 110013Z 01013KT 25/M10 A2973 RMK A01 T02511099  RH  009%=      5-min Rain = 0
KLE1 110014Z 01014KT 25/M10 A2973 RMK A01 T02511098  RH  009%=      5-min Rain = 0
KLE1 110015Z 01016KT 25/M10 A2973 RMK A01 T02511097  RH  009%=      5-min Rain = 0
KLE1 110016Z 01013KT 25/M10 A2973 RMK A01 T02511097  RH  009%=      5-min Rain = 0
KLE1 110017Z 02012KT 25/M10 A2973 RMK A01 T02501097  RH  009%=      5-min Rain = 0
KLE1 110018Z 02012KT 25/M10 A2973 RMK A01 T02491097  RH  009%=      5-min Rain = 0
KLE1 110019Z 02011KT 25/M10 A2973 RMK A01 T02481096  RH  009%=      5-min Rain = 0
KLE1 110020Z 02012KT 25/M10 A2973 RMK A01 T02471097  RH  009%=      5-min Rain = 0
KLE1 110021Z 02014KT 25/M10 A2973 RMK A01 T02471097  RH  009%=      5-min Rain = 0
KLE1 110022Z 02013KT 25/M10 A2973 RMK A01 T02471097  RH  009%=      5-min Rain = 0
KLE1 110023Z 02013KT 25/M10 A2973 RMK A01 T02471096  RH  010%=      5-min Rain = 0
KLE1 110024Z 02015KT 25/M10 A2973 RMK A01 T02461096  RH  010%=      5-min Rain = 0
KLE1 110025Z 02016KT 25/M10 A2973 RMK A01 T02451097  RH  010%=      5-min Rain = 0
KLE1 110026Z 02016KT 25/M10 A2973 RMK A01 T02461096  RH  010%=      5-min Rain = 0
KLE1 110027Z 02016KT 25/M10 A2973 RMK A01 T02461095  RH  010%=      5-min Rain = 0
KLE1 110028Z 02016KT 25/M09 A2973 RMK A01 T02461094  RH  010%=      5-min Rain = 0
KLE1 110029Z 02014KT 25/M09 A2973 RMK A01 T02451094  RH  010%=      5-min Rain = 0
KLE1 110030Z 02012KT 24/M09 A2974 RMK A01 T02431094  RH  010%=      5-min Rain = 0
KLE1 110031Z 02013KT 24/M09 A2974 RMK A01 T02401094  RH  010%=      5-min Rain = 0
KLE1 110032Z 02012KT 24/M09 A2974 RMK A01 T02391093  RH  010%=      5-min Rain = 0
KLE1 110033Z 02012KT 24/M09 A2974 RMK A01 T02381093  RH  010%=      5-min Rain = 0
KLE1 110034Z 02017KT 24/M09 A2974 RMK A01 T02371093  RH  010%=      5-min Rain = 0
KLE1 110035Z 02014KT 24/M09 A2974 RMK A01 T02371093  RH  010%=      5-min Rain = 0
KLE1 110036Z 02014KT 24/M09 A2974 RMK A01 T02371092  RH  010%=      5-min Rain = 0
KLE1 110037Z 01014KT 24/M09 A2974 RMK A01 T02361092  RH  010%=      5-min Rain = 0
KLE1 110038Z 01016KT 24/M09 A2974 RMK A01 T02361092  RH  011%=      5-min Rain = 0
KLE1 110039Z 02014KT 24/M09 A2974 RMK A01 T02351091  RH  011%=      5-min Rain = 0
KLE1 110040Z 02015KT 24/M09 A2974 RMK A01 T02351091  RH  011%=      5-min Rain = 0
KLE1 110041Z 02014KT 23/M09 A2974 RMK A01 T02341092  RH  011%=      5-min Rain = 0
KLE1 110042Z 02014KT 23/M09 A2974 RMK A01 T02331092  RH  011%=      5-min Rain = 0
KLE1 110043Z 02012KT 23/M09 A2974 RMK A01 T02321091  RH  011%=      5-min Rain = 0
KLE1 110044Z 02013KT 23/M09 A2974 RMK A01 T02311092  RH  011%=      5-min Rain = 0
KLE1 110045Z 02013KT 23/M09 A2974 RMK A01 T02291091  RH  011%=      5-min Rain = 0
KLE1 110046Z 02012KT 23/M09 A2974 RMK A01 T02291091  RH  011%=      5-min Rain = 0
KLE1 110047Z 02012KT 23/M09 A2974 RMK A01 T02281091  RH  011%=      5-min Rain = 0
KLE1 110048Z 02012KT 23/M09 A2974 RMK A01 T02271091  RH  011%=      5-min Rain = 0
KLE1 110049Z 02012KT 23/M09 A2974 RMK A01 T02261091  RH  011%=      5-min Rain = 0
KLE1 110050Z 03012KT 23/M09 A2974 RMK A01 T02261091  RH  011%=      5-min Rain = 0
KLE1 110051Z 02012KT 23/M09 A2974 RMK A01 T02261090  RH  011%=      5-min Rain = 0
KLE1 110052Z 02012KT 23/M09 A2974 RMK A01 T02251089  RH  011%=      5-min Rain = 0
KLE1 110053Z 02012KT 22/M09 A2974 RMK A01 T02241090  RH  011%=      5-min Rain = 0
KLE1 110054Z 02011KT 22/M09 A2974 RMK A01 T02241090  RH  011%=      5-min Rain = 0
KLE1 110055Z 02011KT 22/M09 A2974 RMK A01 T02241089  RH  012%=      5-min Rain = 0
KLE1 110056Z 02013KT 22/M09 A2974 RMK A01 T02231090  RH  012%=      5-min Rain = 0
KLE1 110057Z 02012KT 22/M09 A2974 RMK A01 T02231089  RH  012%=      5-min Rain = 0
KLE1 110058Z 02012KT 22/M09 A2974 RMK A01 T02221089  RH  012%=      5-min Rain = 0
KLE1 110059Z 02012KT 22/M09 A2974 RMK A01 T02211089  RH  012%=      5-min Rain = 0
KLE1 110100Z 02012KT 22/M09 A2974 RMK A01 T02211088  RH  012%=      5-min Rain = 0
KLE1 110101Z 02012KT 22/M09 A2974 RMK A01 T02211088  RH  012%=      5-min Rain = 0
KLE1 110102Z 02011KT 22/M09 A2975 RMK A01 T02201088  RH  012%=      5-min Rain = 0
KLE1 110103Z 02011KT 22/M09 A2975 RMK A01 T02181088  RH  012%=      5-min Rain = 0
KLE1 110104Z 02012KT 22/M09 A2975 RMK A01 T02171087  RH  012%=      5-min Rain = 0
KLE1 110105Z 02012KT 22/M09 A2975 RMK A01 T02171087  RH  012%=      5-min Rain = 0
KLE1 110106Z 02012KT 22/M09 A2975 RMK A01 T02161086  RH  012%=      5-min Rain = 0
KLE1 110107Z 02012KT 22/M09 A2975 RMK A01 T02161087  RH  012%=      5-min Rain = 0
KLE1 110108Z 02011KT 22/M09 A2975 RMK A01 T02161086  RH  012%=      5-min Rain = 0
KLE1 110109Z 02011KT 21/M09 A2975 RMK A01 T02141087  RH  012%=      5-min Rain = 0
KLE1 110110Z 02011KT 21/M09 A2975 RMK A01 T02131086  RH  013%=      5-min Rain = 0
KLE1 110111Z 02012KT 21/M09 A2975 RMK A01 T02121086  RH  013%=      5-min Rain = 0
KLE1 110112Z 02012KT 21/M09 A2975 RMK A01 T02121086  RH  013%=      5-min Rain = 0
KLE1 110113Z 02012KT 21/M09 A2975 RMK A01 T02121085  RH  013%=      5-min Rain = 0
KLE1 110114Z 02012KT 21/M08 A2975 RMK A01 T02121084  RH  013%=      5-min Rain = 0
KLE1 110115Z 02013KT 21/M08 A2975 RMK A01 T02121084  RH  013%=      5-min Rain = 0
KLE1 110116Z 02013KT 21/M08 A2975 RMK A01 T02121084  RH  013%=      5-min Rain = 0
KLE1 110117Z 02012KT 21/M08 A2975 RMK A01 T02121084  RH  013%=      5-min Rain = 0
KLE1 110118Z 02012KT 21/M08 A2975 RMK A01 T02121084  RH  013%=      5-min Rain = 0
KLE1 110119Z 02013KT 21/M08 A2975 RMK A01 T02121084  RH  013%=      5-min Rain = 0
KLE1 110120Z 02012KT 21/M08 A2975 RMK A01 T02111084  RH  013%=      5-min Rain = 0
KLE1 110121Z 02012KT 21/M08 A2975 RMK A01 T02101084  RH  013%=      5-min Rain = 0
KLE1 110122Z 02011KT 21/M08 A2975 RMK A01 T02101084  RH  013%=      5-min Rain = 0
KLE1 110123Z 02012KT 21/M08 A2975 RMK A01 T02091084  RH  013%=      5-min Rain = 0
KLE1 110124Z 02011KT 21/M08 A2975 RMK A01 T02091083  RH  013%=      5-min Rain = 0
KLE1 110125Z 03011KT 21/M08 A2975 RMK A01 T02091083  RH  013%=      5-min Rain = 0
KLE1 110126Z 03012KT 21/M08 A2975 RMK A01 T02081083  RH  013%=      5-min Rain = 0
KLE1 110127Z 02012KT 21/M08 A2976 RMK A01 T02071083  RH  013%=      5-min Rain = 0
KLE1 110128Z 02012KT 21/M08 A2976 RMK A01 T02071083  RH  013%=      5-min Rain = 0
KLE1 110129Z 03013KT 21/M08 A2976 RMK A01 T02071082  RH  014%=      5-min Rain = 0
KLE1 110130Z 03012KT 21/M08 A2976 RMK A01 T02071083  RH  014%=      5-min Rain = 0
KLE1 110131Z 02012KT 21/M08 A2976 RMK A01 T02061082  RH  014%=      5-min Rain = 0
KLE1 110132Z 02011KT 21/M08 A2976 RMK A01 T02061082  RH  014%=      5-min Rain = 0
KLE1 110133Z 02012KT 21/M08 A2976 RMK A01 T02061083  RH  014%=      5-min Rain = 0
KLE1 110134Z 02011KT 21/M08 A2976 RMK A01 T02051083  RH  014%=      5-min Rain = 0
KLE1 110135Z 02012KT 21/M08 A2976 RMK A01 T02061082  RH  014%=      5-min Rain = 0
KLE1 110136Z 02012KT 21/M08 A2976 RMK A01 T02051083  RH  014%=      5-min Rain = 0
KLE1 110137Z 02012KT 21/M08 A2976 RMK A01 T02051083  RH  014%=      5-min Rain = 0
KLE1 110138Z 02013KT 21/M08 A2976 RMK A01 T02051083  RH  014%=      5-min Rain = 0
KLE1 110139Z 03012KT 20/M08 A2976 RMK A01 T02041083  RH  014%=      5-min Rain = 0
KLE1 110140Z 02012KT 20/M08 A2977 RMK A01 T02041083  RH  014%=      5-min Rain = 0
KLE1 110141Z 02013KT 21/M08 A2977 RMK A01 T02051083  RH  014%=      5-min Rain = 0
KLE1 110142Z 02014KT 21/M08 A2977 RMK A01 T02051083  RH  014%=      5-min Rain = 0
KLE1 110143Z 03014KT 21/M08 A2977 RMK A01 T02061083  RH  014%=      5-min Rain = 0
KLE1 110144Z 02014KT 21/M08 A2977 RMK A01 T02071082  RH  013%=      5-min Rain = 0
KLE1 110145Z 03015KT 21/M08 A2977 RMK A01 T02081083  RH  013%=      5-min Rain = 0
KLE1 110146Z 03014KT 21/M08 A2977 RMK A01 T02081083  RH  013%=      5-min Rain = 0
KLE1 110147Z 03015KT 21/M08 A2977 RMK A01 T02081082  RH  013%=      5-min Rain = 0
KLE1 110148Z 02015KT 21/M08 A2977 RMK A01 T02081082  RH  013%=      5-min Rain = 0
KLE1 110149Z 02015KT 21/M08 A2977 RMK A01 T02081082  RH  013%=      5-min Rain = 0
KLE1 110150Z 03015KT 21/M08 A2977 RMK A01 T02081082  RH  013%=      5-min Rain = 0
KLE1 110151Z 03016KT 21/M08 A2977 RMK A01 T02081082  RH  013%=      5-min Rain = 0
KLE1 110152Z 03015KT 21/M08 A2977 RMK A01 T02081083  RH  013%=      5-min Rain = 0
KLE1 110153Z 03014KT 21/M08 A2977 RMK A01 T02091083  RH  013%=      5-min Rain = 0
KLE1 110154Z 03014KT 21/M08 A2977 RMK A01 T02091083  RH  013%=      5-min Rain = 0
KLE1 110155Z 03013KT 21/M08 A2977 RMK A01 T02081083  RH  013%=      5-min Rain = 0
KLE1 110156Z 03014KT 21/M08 A2977 RMK A01 T02071083  RH  013%=      5-min Rain = 0
KLE1 110157Z 03014KT 21/M08 A2977 RMK A01 T02071083  RH  013%=      5-min Rain = 0
KLE1 110158Z 03014KT 21/M08 A2977 RMK A01 T02071082  RH  013%=      5-min Rain = 0
KLE1 110159Z 03013KT 21/M08 A2977 RMK A01 T02071083  RH  013%=      5-min Rain = 0
KLE1 110200Z 03012KT 21/M08 A2978 RMK A01 T02061083  RH  013%=      5-min Rain = 0
KLE1 110201Z 03014KT 21/M08 A2978 RMK A01 T02061083  RH  014%=      5-min Rain = 0
KLE1 110202Z 03015KT 21/M08 A2978 RMK A01 T02061083  RH  014%=      5-min Rain = 0
KLE1 110203Z 03014KT 21/M08 A2978 RMK A01 T02061082  RH  014%=      5-min Rain = 0
KLE1 110204Z 03012KT 21/M08 A2978 RMK A01 T02061083  RH  013%=      5-min Rain = 0
KLE1 110205Z 03012KT 21/M08 A2978 RMK A01 T02061083  RH  014%=      5-min Rain = 0
KLE1 110206Z 04012KT 21/M08 A2978 RMK A01 T02061083  RH  014%=      5-min Rain = 0
KLE1 110207Z 03013KT 20/M08 A2978 RMK A01 T02041083  RH  014%=      5-min Rain = 0
KLE1 110208Z 04012KT 20/M08 A2979 RMK A01 T02041083  RH  014%=      5-min Rain = 0
KLE1 110209Z 03012KT 20/M08 A2979 RMK A01 T02041083  RH  014%=      5-min Rain = 0
KLE1 110210Z 03012KT 20/M08 A2979 RMK A01 T02041084  RH  014%=      5-min Rain = 0
KLE1 110211Z 04012KT 20/M08 A2979 RMK A01 T02041084  RH  014%=      5-min Rain = 0
KLE1 110212Z 03012KT 21/M08 A2979 RMK A01 T02051083  RH  014%=      5-min Rain = 0
KLE1 110213Z 03012KT 20/M08 A2979 RMK A01 T02041083  RH  014%=      5-min Rain = 0
KLE1 110214Z 03013KT 20/M08 A2979 RMK A01 T02041083  RH  014%=      5-min Rain = 0
KLE1 110215Z 03013KT 20/M08 A2979 RMK A01 T02031083  RH  014%=      5-min Rain = 0
KLE1 110216Z 03013KT 20/M08 A2979 RMK A01 T02031083  RH  014%=      5-min Rain = 0
KLE1 110217Z 03013KT 20/M08 A2979 RMK A01 T02031083  RH  014%=      5-min Rain = 0
KLE1 110218Z 03014KT 20/M08 A2979 RMK A01 T02031083  RH  014%=      5-min Rain = 0
KLE1 110219Z 03013KT 20/M08 A2979 RMK A01 T02041083  RH  014%=      5-min Rain = 0
KLE1 110220Z 03012KT 20/M08 A2979 RMK A01 T02041083  RH  014%=      5-min Rain = 0
KLE1 110221Z 03013KT 20/M08 A2979 RMK A01 T02031083  RH  014%=      5-min Rain = 0
KLE1 110222Z 03012KT 20/M08 A2979 RMK A01 T02021083  RH  014%=      5-min Rain = 0
KLE1 110223Z 03011KT 20/M08 A2979 RMK A01 T02031082  RH  014%=      5-min Rain = 0
KLE1 110224Z 03015KT 20/M08 A2979 RMK A01 T02021082  RH  014%=      5-min Rain = 0
KLE1 110225Z 03012KT 20/M08 A2979 RMK A01 T02021082  RH  014%=      5-min Rain = 0
KLE1 110226Z 03013KT 20/M08 A2979 RMK A01 T02021082  RH  014%=      5-min Rain = 0
KLE1 110227Z 03013KT 20/M08 A2979 RMK A01 T02011082  RH  014%=      5-min Rain = 0
KLE1 110228Z 03014KT 20/M08 A2979 RMK A01 T02011081  RH  014%=      5-min Rain = 0
KLE1 110229Z 03013KT 20/M08 A2979 RMK A01 T02001082  RH  014%=      5-min Rain = 0
KLE1 110230Z 03014KT 20/M08 A2979 RMK A01 T02011081  RH  014%=      5-min Rain = 0
KLE1 110231Z 03013KT 20/M08 A2979 RMK A01 T02011081  RH  014%=      5-min Rain = 0
KLE1 110232Z 03013KT 20/M08 A2979 RMK A01 T02011081  RH  014%=      5-min Rain = 0
KLE1 110233Z 03012KT 20/M08 A2979 RMK A01 T02011080  RH  014%=      5-min Rain = 0
KLE1 110234Z 04014KT 20/M08 A298 RMK A01 T02001080  RH  014%=      5-min Rain = 0
KLE1 110235Z 03014KT 20/M08 A298 RMK A01 T02001080  RH  014%=      5-min Rain = 0
KLE1 110236Z 03013KT 20/M08 A298 RMK A01 T02001080  RH  014%=      5-min Rain = 0
KLE1 110237Z 03015KT 20/M08 A298 RMK A01 T02001080  RH  014%=      5-min Rain = 0
KLE1 110238Z 03015KT 20/M08 A298 RMK A01 T02011080  RH  014%=      5-min Rain = 0
KLE1 110239Z 03016KT 20/M08 A298 RMK A01 T02011080  RH  014%=      5-min Rain = 0
KLE1 110240Z 04014KT 20/M08 A298 RMK A01 T02011080  RH  014%=      5-min Rain = 0
KLE1 110241Z 04015KT 20/M08 A298 RMK A01 T02021079  RH  014%=      5-min Rain = 0
KLE1 110242Z 04014KT 20/M08 A298 RMK A01 T02021079  RH  014%=      5-min Rain = 0
KLE1 110243Z 03012KT 20/M08 A2981 RMK A01 T02021079  RH  014%=      5-min Rain = 0
KLE1 110244Z 03012KT 20/M08 A2981 RMK A01 T02011079  RH  014%=      5-min Rain = 0
KLE1 110245Z 03014KT 20/M08 A2981 RMK A01 T02001079  RH  014%=      5-min Rain = 0
KLE1 110246Z 03013KT 20/M08 A2981 RMK A01 T02001078  RH  015%=      5-min Rain = 0
KLE1 110247Z 03012KT 20/M08 A2981 RMK A01 T02001079  RH  015%=      5-min Rain = 0
KLE1 110248Z 03010KT 20/M08 A2981 RMK A01 T02001078  RH  015%=      5-min Rain = 0
KLE1 110249Z 04011KT 20/M08 A2981 RMK A01 T01991078  RH  015%=      5-min Rain = 0
KLE1 110250Z 04012KT 20/M08 A2981 RMK A01 T01971078  RH  015%=      5-min Rain = 0
KLE1 110251Z 03012KT 20/M08 A2981 RMK A01 T01971077  RH  015%=      5-min Rain = 0
KLE1 110252Z 03013KT 20/M08 A2981 RMK A01 T01971077  RH  015%=      5-min Rain = 0
KLE1 110253Z 04012KT 20/M08 A2981 RMK A01 T01981077  RH  015%=      5-min Rain = 0
KLE1 110254Z 03013KT 20/M08 A2981 RMK A01 T01991076  RH  015%=      5-min Rain = 0
KLE1 110255Z 03012KT 20/M08 A2981 RMK A01 T01981076  RH  015%=      5-min Rain = 0
KLE1 110256Z 03012KT 20/M08 A2982 RMK A01 T01991075  RH  015%=      5-min Rain = 0
KLE1 110257Z 03011KT 20/M08 A2982 RMK A01 T01981075  RH  015%=      5-min Rain = 0
KLE1 110258Z 03011KT 20/M08 A2982 RMK A01 T01971075  RH  015%=      5-min Rain = 0
KLE1 110259Z 04011KT 20/M07 A2982 RMK A01 T01961074  RH  015%=      5-min Rain = 0
KLE1 110300Z 04011KT 20/M07 A2982 RMK A01 T01971074  RH  015%=      5-min Rain = 0
KLE1 110301Z 04011KT 20/M07 A2982 RMK A01 T01971073  RH  015%=      5-min Rain = 0
KLE1 110302Z 04011KT 20/M07 A2982 RMK A01 T01961073  RH  016%=      5-min Rain = 0
KLE1 110303Z 04011KT 20/M07 A2982 RMK A01 T01961072  RH  016%=      5-min Rain = 0
KLE1 110304Z 03009KT 20/M07 A2982 RMK A01 T01961071  RH  016%=      5-min Rain = 0
KLE1 110305Z 04011KT 20/M07 A2982 RMK A01 T01951071  RH  016%=      5-min Rain = 0
KLE1 110306Z 03012KT 19/M07 A2983 RMK A01 T01941070  RH  016%=      5-min Rain = 0
KLE1 110307Z 03011KT 20/M07 A2983 RMK A01 T01951068  RH  016%=      5-min Rain = 0
KLE1 110308Z 03011KT 20/M07 A2983 RMK A01 T01951067  RH  016%=      5-min Rain = 0
KLE1 110309Z 03011KT 20/M07 A2983 RMK A01 T01951066  RH  016%=      5-min Rain = 0
KLE1 110310Z 03010KT 20/M07 A2983 RMK A01 T01951066  RH  016%=      5-min Rain = 0
KLE1 110311Z 02012KT 19/M07 A2983 RMK A01 T01941065  RH  017%=      5-min Rain = 0
KLE1 110312Z 01012KT 19/M07 A2984 RMK A01 T01941065  RH  017%=      5-min Rain = 0
KLE1 110313Z 01011KT 19/M07 A2984 RMK A01 T01921068  RH  017%=      5-min Rain = 0
KLE1 110314Z 00010KT 19/M07 A2984 RMK A01 T01891071  RH  016%=      5-min Rain = 0
KLE1 110315Z 01010KT 19/M07 A2984 RMK A01 T01871073  RH  016%=      5-min Rain = 0
KLE1 110316Z 01010KT 19/M07 A2984 RMK A01 T01861074  RH  016%=      5-min Rain = 0
KLE1 110317Z 02009KT 19/M07 A2984 RMK A01 T01861074  RH  016%=      5-min Rain = 0
KLE1 110318Z 02011KT 19/M07 A2984 RMK A01 T01861074  RH  016%=      5-min Rain = 0
KLE1 110319Z 02012KT 19/M07 A2984 RMK A01 T01871072  RH  016%=      5-min Rain = 0
KLE1 110320Z 02012KT 19/M07 A2984 RMK A01 T01891071  RH  016%=      5-min Rain = 0
KLE1 110321Z 02011KT 19/M07 A2984 RMK A01 T01891071  RH  016%=      5-min Rain = 0
KLE1 110322Z 02010KT 19/M07 A2984 RMK A01 T01891072  RH  016%=      5-min Rain = 0
KLE1 110323Z 02011KT 19/M07 A2984 RMK A01 T01891071  RH  017%=      5-min Rain = 0
KLE1 110324Z 03011KT 19/M07 A2985 RMK A01 T01881070  RH  017%=      5-min Rain = 0
KLE1 110325Z 03010KT 19/M07 A2985 RMK A01 T01881070  RH  017%=      5-min Rain = 0
KLE1 110326Z 03010KT 19/M07 A2985 RMK A01 T01881069  RH  017%=      5-min Rain = 0
KLE1 110327Z 03010KT 19/M07 A2985 RMK A01 T01871069  RH  017%=      5-min Rain = 0
KLE1 110328Z 03011KT 19/M07 A2985 RMK A01 T01871068  RH  017%=      5-min Rain = 0
KLE1 110329Z 02011KT 19/M07 A2985 RMK A01 T01861068  RH  017%=      5-min Rain = 0
KLE1 110330Z 03010KT 19/M07 A2985 RMK A01 T01861068  RH  017%=      5-min Rain = 0
KLE1 110331Z 03011KT 19/M07 A2985 RMK A01 T01861067  RH  017%=      5-min Rain = 0
KLE1 110332Z 03010KT 19/M07 A2985 RMK A01 T01861066  RH  017%=      5-min Rain = 0
KLE1 110333Z 03011KT 19/M07 A2985 RMK A01 T01851066  RH  018%=      5-min Rain = 0
KLE1 110334Z 03012KT 19/M06 A2985 RMK A01 T01851064  RH  018%=      5-min Rain = 0
KLE1 110335Z 03013KT 19/M06 A2985 RMK A01 T01851063  RH  018%=      5-min Rain = 0
KLE1 110336Z 02012KT 19/M06 A2985 RMK A01 T01851060  RH  018%=      5-min Rain = 0
KLE1 110337Z 02012KT 19/M06 A2985 RMK A01 T01851058  RH  019%=      5-min Rain = 0
KLE1 110338Z 03013KT 19/M06 A2985 RMK A01 T01851058  RH  019%=      5-min Rain = 0
KLE1 110339Z 03013KT 18/M06 A2985 RMK A01 T01841055  RH  019%=      5-min Rain = 0
KLE1 110340Z 03011KT 18/M05 A2985 RMK A01 T01841052  RH  020%=      5-min Rain = 0
KLE1 110341Z 03012KT 18/M05 A2986 RMK A01 T01841049  RH  020%=      5-min Rain = 0
KLE1 110342Z 03011KT 18/M05 A2986 RMK A01 T01831046  RH  021%=      5-min Rain = 0
KLE1 110343Z 03012KT 18/M05 A2986 RMK A01 T01831046  RH  021%=      5-min Rain = 0
KLE1 110344Z 03011KT 18/M04 A2986 RMK A01 T01821044  RH  021%=      5-min Rain = 0
KLE1 110345Z 04011KT 18/M04 A2986 RMK A01 T01821041  RH  022%=      5-min Rain = 0
KLE1 110346Z 03012KT 18/M04 A2986 RMK A01 T01821038  RH  022%=      5-min Rain = 0
KLE1 110347Z 03012KT 18/M03 A2987 RMK A01 T01821033  RH  023%=      5-min Rain = 0
KLE1 110348Z 03011KT 18/M03 A2987 RMK A01 T01821031  RH  023%=      5-min Rain = 0
KLE1 110349Z 04011KT 18/M03 A2987 RMK A01 T01821029  RH  024%=      5-min Rain = 0
KLE1 110350Z 03012KT 18/M03 A2987 RMK A01 T01821027  RH  024%=      5-min Rain = 0
KLE1 110351Z 03013KT 18/M02 A2987 RMK A01 T01821021  RH  025%=      5-min Rain = 0
KLE1 110352Z 03013KT 18/M02 A2987 RMK A01 T01821017  RH  026%=      5-min Rain = 0
KLE1 110353Z 04011KT 18/M02 A2987 RMK A01 T01821017  RH  026%=      5-min Rain = 0
KLE1 110354Z 04011KT 18/M02 A2987 RMK A01 T01821015  RH  026%=      5-min Rain = 0
KLE1 110355Z 04014KT 18/M01 A2987 RMK A01 T01811010  RH  027%=      5-min Rain = 0
KLE1 110356Z 04013KT 18/M01 A2987 RMK A01 T01821005  RH  028%=      5-min Rain = 0
KLE1 110357Z 04013KT 18/M00 A2987 RMK A01 T01821003  RH  029%=      5-min Rain = 0
KLE1 110358Z 04013KT 18/M00 A2987 RMK A01 T01821001  RH  029%=      5-min Rain = 0
KLE1 110359Z 04013KT 18/00 A2987 RMK A01 T01820001  RH  030%=      5-min Rain = 0
KLE1 110400Z 05013KT 18/00 A2987 RMK A01 T01820002  RH  030%=      5-min Rain = 0
KLE1 110401Z 05014KT 18/00 A2987 RMK A01 T01820004  RH  030%=      5-min Rain = 0
KLE1 110402Z 05013KT 18/01 A2987 RMK A01 T01820007  RH  031%=      5-min Rain = 0
KLE1 110403Z 05013KT 18/01 A2987 RMK A01 T01820007  RH  031%=      5-min Rain = 0
KLE1 110404Z 05012KT 18/01 A2987 RMK A01 T01820009  RH  031%=      5-min Rain = 0
KLE1 110405Z 04013KT 18/01 A2988 RMK A01 T01810010  RH  032%=      5-min Rain = 0
KLE1 110406Z 04013KT 18/01 A2988 RMK A01 T01810012  RH  032%=      5-min Rain = 0
KLE1 110407Z 04013KT 18/01 A2988 RMK A01 T01810013  RH  032%=      5-min Rain = 0
KLE1 110408Z 04014KT 18/02 A2988 RMK A01 T01810016  RH  033%=      5-min Rain = 0
KLE1 110409Z 04014KT 18/02 A2988 RMK A01 T01810018  RH  034%=      5-min Rain = 0
KLE1 110410Z 04013KT 18/02 A2988 RMK A01 T01810020  RH  034%=      5-min Rain = 0
KLE1 110411Z 04011KT 18/02 A2988 RMK A01 T01810020  RH  034%=      5-min Rain = 0
KLE1 110412Z 04012KT 18/02 A2988 RMK A01 T01800020  RH  034%=      5-min Rain = 0
KLE1 110413Z 03012KT 18/02 A2988 RMK A01 T01790021  RH  035%=      5-min Rain = 0
KLE1 110414Z 04015KT 18/02 A2988 RMK A01 T01780023  RH  035%=      5-min Rain = 0
KLE1 110415Z 04013KT 18/03 A2988 RMK A01 T01780026  RH  036%=      5-min Rain = 0
KLE1 110416Z 04013KT 18/03 A2989 RMK A01 T01790027  RH  036%=      5-min Rain = 0
KLE1 110417Z 03013KT 18/03 A2989 RMK A01 T01780027  RH  036%=      5-min Rain = 0
KLE1 110418Z 03014KT 18/03 A2989 RMK A01 T01780028  RH  037%=      5-min Rain = 0
KLE1 110419Z 04014KT 18/03 A2989 RMK A01 T01770029  RH  037%=      5-min Rain = 0
KLE1 110420Z 03011KT 18/03 A2989 RMK A01 T01780030  RH  037%=      5-min Rain = 0
KLE1 110421Z 03011KT 18/03 A2989 RMK A01 T01770029  RH  037%=      5-min Rain = 0
KLE1 110422Z 04016KT 18/03 A2989 RMK A01 T01760030  RH  038%=      5-min Rain = 0
KLE1 110423Z 04016KT 18/03 A2989 RMK A01 T01760032  RH  038%=      5-min Rain = 0
KLE1 110424Z 04015KT 18/03 A2989 RMK A01 T01760032  RH  038%=      5-min Rain = 0
KLE1 110425Z 04016KT 18/03 A299 RMK A01 T01760033  RH  038%=      5-min Rain = 0
KLE1 110426Z 03015KT 18/03 A299 RMK A01 T01760034  RH  039%=      5-min Rain = 0
KLE1 110427Z 04013KT 18/03 A299 RMK A01 T01760033  RH  039%=      5-min Rain = 0
KLE1 110428Z 03014KT 18/03 A299 RMK A01 T01750033  RH  039%=      5-min Rain = 0
KLE1 110429Z 03014KT 17/04 A299 RMK A01 T01740035  RH  039%=      5-min Rain = 0
KLE1 110430Z 04012KT 17/04 A299 RMK A01 T01740035  RH  040%=      5-min Rain = 0
KLE1 110431Z 04013KT 17/04 A299 RMK A01 T01730037  RH  040%=      5-min Rain = 0
KLE1 110432Z 04012KT 17/04 A299 RMK A01 T01730038  RH  041%=      5-min Rain = 0
KLE1 110433Z 03014G19KT 17/04 A299 RMK A01 T01720041  RH  042%=      5-min Rain = 0
KLE1 110434Z 04012KT 17/04 A299 RMK A01 T01720044  RH  043%=      5-min Rain = 0
KLE1 110435Z 03014G19KT 17/05 A299 RMK A01 T01720045  RH  043%=      5-min Rain = 0
KLE1 110436Z 04014KT 17/05 A299 RMK A01 T01720046  RH  043%=      5-min Rain = 0
KLE1 110437Z 03015KT 17/05 A299 RMK A01 T01720047  RH  044%=      5-min Rain = 0
KLE1 110438Z 03014KT 17/05 A2991 RMK A01 T01720047  RH  044%=      5-min Rain = 0
KLE1 110439Z 04013KT 17/05 A2991 RMK A01 T01720046  RH  043%=      5-min Rain = 0
KLE1 110440Z 04014KT 17/05 A2991 RMK A01 T01720046  RH  043%=      5-min Rain = 0
KLE1 110441Z 04013KT 17/05 A2991 RMK A01 T01710046  RH  043%=      5-min Rain = 0
KLE1 110442Z 04015KT 17/05 A2991 RMK A01 T01710045  RH  043%=      5-min Rain = 0
KLE1 110443Z 03014KT 17/05 A2991 RMK A01 T01710046  RH  043%=      5-min Rain = 0
KLE1 110444Z 03017KT 17/05 A2991 RMK A01 T01710047  RH  044%=      5-min Rain = 0
KLE1 110445Z 03015KT 17/05 A2992 RMK A01 T01710047  RH  044%=      5-min Rain = 0
KLE1 110446Z 03014KT 17/05 A2992 RMK A01 T01720047  RH  044%=      5-min Rain = 0
KLE1 110447Z 02015KT 17/05 A2992 RMK A01 T01710046  RH  043%=      5-min Rain = 0
KLE1 110448Z 02014KT 17/05 A2992 RMK A01 T01710045  RH  043%=      5-min Rain = 0
KLE1 110449Z 02015KT 17/05 A2992 RMK A01 T01700045  RH  043%=      5-min Rain = 0
KLE1 110450Z 01011KT 17/05 A2993 RMK A01 T01700045  RH  043%=      5-min Rain = 0
KLE1 110451Z 01013KT 17/04 A2993 RMK A01 T01690043  RH  043%=      5-min Rain = 0
KLE1 110452Z 01015KT 17/04 A2993 RMK A01 T01690043  RH  043%=      5-min Rain = 0
KLE1 110453Z 01014KT 17/04 A2993 RMK A01 T01690042  RH  043%=      5-min Rain = 0
KLE1 110454Z 01014KT 17/04 A2993 RMK A01 T01680041  RH  043%=      5-min Rain = 0
KLE1 110455Z 01013KT 17/04 A2993 RMK A01 T01680041  RH  043%=      5-min Rain = 0
KLE1 110456Z 01015KT 17/04 A2994 RMK A01 T01670040  RH  043%=      5-min Rain = 0
KLE1 110457Z 01015KT 17/04 A2994 RMK A01 T01670040  RH  043%=      5-min Rain = 0
KLE1 110458Z 01017KT 17/04 A2994 RMK A01 T01670039  RH  042%=      5-min Rain = 0
KLE1 110459Z 01016KT 17/04 A2994 RMK A01 T01670035  RH  041%=      5-min Rain = 0
KLE1 110500Z 01016KT 17/03 A2994 RMK A01 T01670034  RH  041%=      5-min Rain = 0
KLE1 110501Z 00019KT 17/03 A2994 RMK A01 T01670030  RH  040%=      5-min Rain = 0
KLE1 110502Z 00021KT 17/02 A2994 RMK A01 T01660024  RH  038%=      5-min Rain = 0
KLE1 110503Z 01018KT 17/02 A2994 RMK A01 T01660018  RH  037%=      5-min Rain = 0
KLE1 110504Z 01015KT 17/02 A2994 RMK A01 T01660017  RH  037%=      5-min Rain = 0
KLE1 110505Z 01017KT 16/01 A2994 RMK A01 T01640013  RH  036%=      5-min Rain = 0
KLE1 110506Z 01019KT 16/01 A2994 RMK A01 T01640008  RH  035%=      5-min Rain = 0
KLE1 110507Z 01020KT 16/01 A2995 RMK A01 T01640006  RH  034%=      5-min Rain = 0
KLE1 110508Z 02018KT 16/00 A2995 RMK A01 T01630004  RH  034%=      5-min Rain = 0
KLE1 110509Z 01015KT 16/00 A2995 RMK A01 T01630003  RH  034%=      5-min Rain = 0
KLE1 110510Z 02018KT 16/00 A2995 RMK A01 T01620001  RH  034%=      5-min Rain = 0
KLE1 110511Z 02017G26KT 16/M00 A2995 RMK A01 T01621001  RH  033%=      5-min Rain = 0
KLE1 110512Z 02018KT 16/M00 A2995 RMK A01 T01621002  RH  033%=      5-min Rain = 0
KLE1 110513Z 02020KT 16/M01 A2995 RMK A01 T01611006  RH  032%=      5-min Rain = 0
KLE1 110514Z 02020G27KT 16/M01 A2995 RMK A01 T01611008  RH  032%=      5-min Rain = 0
KLE1 110515Z 02020G26KT 16/M01 A2995 RMK A01 T01611010  RH  031%=      5-min Rain = 0
KLE1 110516Z 02019KT 16/M01 A2995 RMK A01 T01601011  RH  031%=      5-min Rain = 0
KLE1 110517Z 01017KT 16/M01 A2995 RMK A01 T01601011  RH  031%=      5-min Rain = 0
KLE1 110518Z 02018G23KT 16/M01 A2996 RMK A01 T01591012  RH  031%=      5-min Rain = 0
KLE1 110519Z 02022KT 16/M01 A2995 RMK A01 T01581014  RH  031%=      5-min Rain = 0
KLE1 110520Z 02025G34KT 16/M02 A2995 RMK A01 T01581016  RH  030%=      5-min Rain = 0
KLE1 110521Z 02019G25KT 16/M02 A2996 RMK A01 T01591019  RH  030%=      5-min Rain = 0
KLE1 110522Z 02019G24KT 16/M02 A2996 RMK A01 T01591019  RH  030%=      5-min Rain = 0
KLE1 110523Z 02023KT 16/M02 A2995 RMK A01 T01581019  RH  030%=      5-min Rain = 0
KLE1 110524Z 02020KT 16/M02 A2996 RMK A01 T01581020  RH  029%=      5-min Rain = 0
KLE1 110525Z 02022KT 16/M02 A2996 RMK A01 T01581021  RH  029%=      5-min Rain = 0
KLE1 110526Z 02021KT 16/M02 A2996 RMK A01 T01581023  RH  029%=      5-min Rain = 0
KLE1 110527Z 02021G26KT 16/M02 A2996 RMK A01 T01571024  RH  029%=      5-min Rain = 0
KLE1 110528Z 02024KT 16/M03 A2996 RMK A01 T01571026  RH  028%=      5-min Rain = 0
KLE1 110529Z 02024G31KT 16/M03 A2996 RMK A01 T01571028  RH  028%=      5-min Rain = 0
KLE1 110530Z 01025G31KT 16/M03 A2996 RMK A01 T01571030  RH  028%=      5-min Rain = 0
KLE1 110531Z 02024G29KT 16/M03 A2996 RMK A01 T01571030  RH  027%=      5-min Rain = 0
KLE1 110532Z 01028G33KT 16/M03 A2996 RMK A01 T01571032  RH  027%=      5-min Rain = 0
KLE1 110533Z 02026KT 16/M03 A2996 RMK A01 T01571033  RH  027%=      5-min Rain = 0
KLE1 110534Z 02025KT 16/M03 A2996 RMK A01 T01571033  RH  027%=      5-min Rain = 0
KLE1 110535Z 02025KT 16/M03 A2996 RMK A01 T01561034  RH  027%=      5-min Rain = 0
KLE1 110536Z 02025G31KT 16/M03 A2996 RMK A01 T01561034  RH  027%=      5-min Rain = 0
KLE1 110537Z 01019KT 16/M04 A2997 RMK A01 T01561035  RH  027%=      5-min Rain = 0
KLE1 110538Z 01020KT 16/M04 A2997 RMK A01 T01551035  RH  027%=      5-min Rain = 0
KLE1 110539Z 01022KT 15/M04 A2997 RMK A01 T01541035  RH  027%=      5-min Rain = 0
KLE1 110540Z 02023G29KT 15/M04 A2997 RMK A01 T01541035  RH  027%=      5-min Rain = 0
KLE1 110541Z 02026G31KT 15/M04 A2997 RMK A01 T01541036  RH  027%=      5-min Rain = 0
KLE1 110542Z 02025KT 16/M04 A2997 RMK A01 T01551037  RH  026%=      5-min Rain = 0
KLE1 110543Z 01022KT 16/M04 A2997 RMK A01 T01551037  RH  026%=      5-min Rain = 0
KLE1 110544Z 02021G26KT 16/M04 A2997 RMK A01 T01551037  RH  026%=      5-min Rain = 0
KLE1 110545Z 02020KT 15/M04 A2997 RMK A01 T01541038  RH  026%=      5-min Rain = 0
KLE1 110546Z 02023G30KT 15/M04 A2998 RMK A01 T01531038  RH  027%=      5-min Rain = 0
KLE1 110547Z 02023G29KT 15/M04 A2998 RMK A01 T01531038  RH  027%=      5-min Rain = 0
KLE1 110548Z 02023G28KT 15/M04 A2998 RMK A01 T01531039  RH  026%=      5-min Rain = 0
KLE1 110549Z 02022G27KT 15/M04 A2998 RMK A01 T01531039  RH  026%=      5-min Rain = 0
KLE1 110550Z 02023KT 15/M04 A2998 RMK A01 T01531038  RH  026%=      5-min Rain = 0
KLE1 110551Z 02019G24KT 15/M04 A2998 RMK A01 T01531039  RH  026%=      5-min Rain = 0
KLE1 110552Z 02025G30KT 15/M04 A2998 RMK A01 T01521039  RH  026%=      5-min Rain = 0
KLE1 110553Z 02024KT 15/M04 A2998 RMK A01 T01531039  RH  026%=      5-min Rain = 0
KLE1 110554Z 02026KT 15/M04 A2998 RMK A01 T01531040  RH  026%=      5-min Rain = 0
KLE1 110555Z 02022G28KT 15/M04 A2998 RMK A01 T01531039  RH  026%=      5-min Rain = 0
KLE1 110556Z 02025G30KT 15/M04 A2998 RMK A01 T01521040  RH  026%=      5-min Rain = 0
KLE1 110557Z 02024KT 15/M04 A2998 RMK A01 T01521040  RH  026%=      5-min Rain = 0
KLE1 110558Z 02023KT 15/M04 A2998 RMK A01 T01521040  RH  026%=      5-min Rain = 0
KLE1 110559Z 02020KT 15/M04 A2999 RMK A01 T01521040  RH  026%=      5-min Rain = 0

Page generated in 0.1464 seconds.